La Course du Souvenir
Jogging Ploegsteert, 11/11/2010, BEL
21.1km - Result
21.097km 
Category
PosNrNameAgeNATTeamRealTimeTkmMoy.PlaceNameCity
1.3005TERER Geoffrey28BEL1:06:001:06:003:08 19.181seh
2.3002VANDROOGENBROECK Lander27BEL1:06:241:06:243:09 19.072seh
3.3007FAYS Guy41BEL1:08:081:08:083:14 18.581vh
4.3012CHOPIN Stephane36FRA1:08:101:08:103:14 18.573sehDOUCHY LES MINES
5.3006COLIGNON Frederic40BEL1:08:531:08:543:16 18.382vh
6.3053COLPAERT Frederic34BEL1:09:211:09:213:18 18.264seh
7.3020LEMAITRE Gregory34FRA1:09:371:09:383:19 18.185sehSAINGHIN EN WEPPES
8.3017CLYNCKE Christophe37BEL1:09:521:09:523:19 18.126sehICHTEGEM
9.3022STIEPERAERE Davy25BEL1:09:591:09:593:20 18.097sehVARSENARE
10.3829LAABNAS Samir31FRA1:10:231:10:243:21 17.988sehHARNES
11.3049CLAIS Francois25BEL1:10:421:10:423:22 17.919sehPERUWELZ
12.3647DEJONGHE Stephane43BEL1:10:221:11:543:25 17.613vhCOMINES
13.3052EL MKABLI Driss40BEL1:12:571:12:573:28 17.354vhBRUXELLES
14.3051EL GASSMI Abdelkbr35BEL1:13:391:13:393:30 17.1910sehMENEN
15.3008MOERMAN Karel25BEL1:14:521:14:523:33 16.9111sehDIKSMUIDE
16.4391COOPMAN Lorenzo34BEL1:14:511:14:543:33 16.9012sehOOSTENDE
17.3559VERMANDER Glenn25BEL1:16:121:16:133:37 16.6113sehDADIZELE
18.4734VANDER MEIREN Thijs25BEL1:16:401:16:403:39 16.5114sehROESELAERE
19.3229HUYGHE Kristof36BEL1:16:401:16:403:39 16.5115sehOOSTNIEUWKERKE
20.4872VAN DORPE Jo46BEL1:16:451:16:453:39 16.495vhROESALARE
21.4684D HALLUIN Yves41BEL1:16:511:16:513:39 16.476vhKUURNE
22.3030VANLEDE Ludovic29BEL1:17:471:17:473:42 16.2816sehBELLEGEM
23.4741DERAM Steven55BEL1:17:461:17:473:42 16.287vhROESELAERE
24.3225STOCKMAN Stefaan33BEL1:18:011:18:013:42 16.2317sehKORTRIJK
25.3981LOOTEN Bernard41BEL1:18:091:18:123:43 16.198vh
26.4857HOLVOET Rinus20BEL1:18:171:18:183:43 16.171eshWEVELGEM
27.4852CREUPELANDT Frederic36BEL1:18:371:18:373:44 16.1018sehDEERLIJK
28.3014SAVOCA Anthony35BEL1:18:411:18:413:44 16.0919sehPLOEGSTEERT
29.3035HEUGHEBAERT Pascal40BEL1:18:491:18:493:45 16.069vhPLOEGSTEERT
30.3895BOUCKNOOGHE Benjamin38FRA1:18:511:18:513:45 16.0520sehMOUVAUX
31.3223MEYFROOT Didier39BEL1:18:531:18:533:45 16.0521sehMOORSLEDE
32.3189LUCAS Pascal48FRA1:19:031:19:033:45 16.0110vhCARVIN
33.3016MAN Karel41BEL1:19:441:19:443:47 15.8811vhDE HAAN
34.4925STOCKMAN Willem44BEL1:19:491:19:503:48 15.8612vhROESELARE
35.4944ROUSSEAUX Thomas25FRA1:19:531:19:563:48 15.8422sehLAMBERSART
36.4382VANDENBROUCKE Jeroen31BEL1:20:081:20:143:49 15.7823sehVLAMERTINGE
37.4590ROOSE Yannick42BEL1:18:281:20:173:49 15.7713vhBRUXELLES
38.4636LANSSENS Ward42BEL1:20:201:20:213:49 15.7614vhSINT JULIAAN
39.3004FCHEPKONGA Christine30BEL1:20:241:20:243:49 15.751sef
40.3050BAUW Bruno44BEL1:20:451:20:453:50 15.6815vhRUMES
41.3412TREMERIE Geoffrey26BEL1:21:051:21:083:51 15.6024sehHARELBEKE
42.3041DECUYPERE Jan43BEL1:19:451:21:103:51 15.6016vhWERVIK
43.3031LUST Christof33BEL1:21:111:21:123:51 15.5925sehOOSTDUINKERKE
44.3536BOURDON Thierry46FRA1:20:581:21:133:51 15.5917vhARRAS
45.3080FLORENT Olivier41FRA1:21:141:21:143:52 15.5818vhBULLY LES MINES
46.3043FFRANQUET Anne Charlotte33FRA1:21:161:21:173:52 15.582sefLAMBERSART
47.3144FICOT Pierre37FRAJOG SRD1:21:271:21:283:52 15.5426sehFORT MARDYCK
48.4694HERPELS Geert41BEL1:21:281:21:293:52 15.5419vhWEVELGEM
49.3023LAZOU Mathieu31BELPARMENTIER SPOR1:21:321:21:323:52 15.5327sehBISSEGEM
50.3147BACS Kristof36BEL1:21:321:21:323:52 15.5328sehPOPERINGE
DNF: did not finish; DSQ: disqualified; Speed in km/h
06/02/2023 - 09:56 - 1689 Entries
ChronoRace - Electronic Timing SPRL
http://www.chronorace.be

Page 1 / 34  
La Course du Souvenir
Jogging Ploegsteert, 11/11/2010, BEL
21.1km - Result
21.097km 
Category
PosNrNameAgeNATTeamRealTimeTkmMoy.PlaceNameCity
51.4992DEWAEGENAERE Kurt45BEL1:21:361:21:363:53 15.5120vhDEERLIJK
52.3415LABE Georges Yves40FRACACB1:21:321:21:423:53 15.4921vhCOUDEKERQUE BRANCHE
53.3078GEVAERT Philippe42FRA1:22:061:22:063:54 15.4222vhHALLUIN
54.4963VAAST Sebastien33FRA1:22:151:22:163:54 15.3929sehCAMBRAI
55.3557DECAT Jurgen30BEL1:22:191:22:213:55 15.3730sehWERVIK
56.4319MEUL Jeroen25BEL1:22:261:22:263:55 15.3631sehIEPER
57.3836VANSTEENKISTE Bruno40FRA1:22:331:22:363:55 15.3323vhHALLUIN
58.3015FROZART Marie27BEL1:22:371:22:373:55 15.323sefPLOEGSTEERT
59.4066TERNET Vincent36BEL1:22:481:22:483:56 15.2932sehHOEILAART
60.3048FVUILLARD Isabelle37BEL1:22:521:22:523:56 15.284sef
61.3001AMRANI Norddine32BEL1:22:541:22:543:56 15.2733sehSINT BAAF
62.4847TIMPERMAN Felix35BEL1:22:551:22:553:56 15.2734sehRUMBEKE
63.4610DECRUYNAERE Lode41BEL1:22:541:22:583:56 15.2624vhMARKE
64.4768DENYS Patrick46BEL1:23:131:23:143:57 15.2125vhHOUTHULST
65.3498FRULEUX Jean Marc47FRA1:23:161:23:173:57 15.2026vhCALONNE SUR LA LYS
66.3487LECOCQ Ambroise20FRA1:23:181:23:183:57 15.202eshLA COUTURE
67.3902CHAMBART Tom41BEL1:23:171:23:193:57 15.1927vhRUMBEKE
68.4902POUGET Laurent41FRA1:23:211:23:213:58 15.1928vhQUESNOY SUR DEULE
69.3036CHARLET Eric38BELJOG WARNETON1:23:221:23:223:58 15.1935sehBAS WARNETON
70.4435BOSSUT Cedric37BEL1:23:221:23:233:58 15.1836sehCOMINES
71.4538VINCKIER Glenn32BEL1:23:331:23:343:58 15.1537sehBAVIKHOVE
72.3754MAECHEL Patrice55FRALILLE METROPOLE1:23:351:23:363:58 15.1429vhST ANDRE LEZ LILLE
73.4542DEGANDT Dirk38BEL1:23:351:23:433:59 15.1238sehPOELKAPELLE
74.4490BALANCK Hugo48BELROAD RUNNERS TO1:21:441:23:503:59 15.1030vhZEDELGEM
75.3330MOREAU Stephane34FRA1:22:011:24:023:59 15.0639sehGIVENCHY LE NOBLE
76.3034COUSIN Sebastien29BELCBP1:24:021:24:034:00 15.0640sehPLOEGSTEERT
77.4864VANDEGHINSTE Frans50BEL1:24:031:24:044:00 15.0631vhZWEVEGEM
78.5035MATHON Charly21FRA1:24:041:24:064:00 15.053eshWASQUEHAL
79.4310GUIBERT Damien30FRA1:23:491:24:064:00 15.0541sehPARIS 11
80.4788ROELANDTS Geert40BEL1:24:131:24:184:00 15.0232vhHEULE
81.4951DUBOIS Cris32FRA1:24:061:24:264:01 14.9942sehLECLUSE
82.4448BRANKAERT Hans48FRA1:24:311:24:314:01 14.9833vhTILBURG NEDERLAND
83.3207BONDUELLE Sebastien33FRAJA FRETIN1:24:321:24:324:01 14.9843sehTEMPLEUVE
84.3149VANDENBROUCKE Hans46BEL1:24:231:24:384:01 14.9634vhPOPERINGE
85.4497DIERYCK Pascal42BEL1:24:511:24:524:02 14.9235vhCOMINES
86.3579DEVOS Alain50FRA1:24:441:24:554:02 14.9136vhDUNKERQUE
87.4457VANDENABEELE David35BEL1:24:451:24:574:02 14.9044sehPOPERINGE
88.3493VERBEKE Arnaud38FRA1:24:571:25:014:02 14.8945sehCALAIS
89.4843TAILLIE Jacques49BEL1:25:051:25:084:03 14.8737vhIZEGEM
90.5059DECORTE Paul55BEL1:25:151:25:164:03 14.8538vhPOPERINGE
91.3173BROUCKAERT Bernard39BEL1:25:261:25:274:03 14.8246sehGITS
92.3087PACCO Frederic35FRA1:25:291:25:314:04 14.8047sehDOUVRIN
93.3153VANDENBROUCKE Ivo55BEL1:25:151:25:344:04 14.7939vhROESBRUGGE
94.3495DERAMOUDT Johan40BEL1:24:531:25:354:04 14.7940vhLOMBARDSIJDE
95.3314SOLDAI Patrick55BELAHVL1:25:351:25:374:04 14.7941vhHERSEAUX
96.3663TERRIERE Lorenzo22BEL1:25:331:25:404:04 14.784eshMESEN
97.4919DECONINCK Wouter43BEL1:25:371:25:414:04 14.7742vhVICHTE
98.3973MOORTGAT Godfried49BEL1:25:421:25:424:04 14.7743vhWIJTSCHATE
99.4942VANTYGHEN Vincent38BEL1:25:441:25:474:04 14.7648sehEERNEGEM
100.3297PIRON Joel52FRA1:25:441:25:494:05 14.7544vhWARHEM
DNF: did not finish; DSQ: disqualified; Speed in km/h
06/02/2023 - 09:56 - 1689 Entries
ChronoRace - Electronic Timing SPRL
http://www.chronorace.be

Page 2 / 34  
La Course du Souvenir
Jogging Ploegsteert, 11/11/2010, BEL
21.1km - Result
21.097km 
Category
PosNrNameAgeNATTeamRealTimeTkmMoy.PlaceNameCity
101.3037COOPMAN Patrice45BELJOG WARNETON1:25:551:25:554:05 14.7345vhREKKEM
102.3445GRUSON Christophe27FRA1:25:561:26:064:05 14.7049sehLA GORGUE
103.3045MENET Didier52BEL1:26:071:26:074:05 14.7046vhPLOEGSTEERT
104.3873GRAVE Jean Sebastien33FRA1:25:031:26:144:06 14.6850sehMOUVAUX
105.4023PINKET Philip42BEL1:26:071:26:184:06 14.6747vhRUMBEKE
106.3378CLEMME Kevin20BEL1:26:221:26:294:06 14.645eshVEURNE
107.4764DALLET Dimitri45BEL1:26:251:26:314:07 14.6348vhLAUWE
108.3360COULLEIT Aldo42BELCERATEC1:26:301:26:324:07 14.6349vhWARNETON
109.4946PAING Marc Antoine19FRA1:25:121:26:404:07 14.611juhBONDUES
110.3686PREVOST Stephane36FRACOURIR AU MT. D1:26:381:26:404:07 14.6151sehGODEVAERSVELDE
111.4591VANDICHEL Pascal49FRA1:26:371:26:424:07 14.6050vhGHYVELDE
112.3413BOUCHIQUET Pascal44FRACACB1:26:541:26:544:08 14.5751vhDUNKERQUE
113.4863WALLAERT Freddy49BEL1:26:541:26:584:08 14.5652vhIZEGEM
114.3885PAREIN Benoit46FRA1:26:581:27:034:08 14.5453vhFRELINGHIEN
115.4915LORGE Jean Marc44BEL1:27:001:27:084:08 14.5354vhEGHEZEE
116.4064DUJEUX Stephane40BELTRITEAM BRUGGE1:25:591:27:104:08 14.5255vhBRUGGE
117.3594LEGRAND Olivier41FRA1:25:441:27:194:09 14.5056vhNEUF BERQUIN
118.4749KINDT Servaas18BEL1:26:211:27:224:09 14.492juhHOLLEBEKE
119.3805DUTHOIT Nicolas37FRALILLE TRIATHLON1:27:141:27:344:09 14.4652sehDEULEMONT
120.3375DUTAILLY Jacques56FRA1:27:301:27:364:10 14.4557vhBULLY LES MINES
121.4964CHESNEAU Christophe39FRA1:27:341:27:404:10 14.4453sehDUNKERQUE
122.3450DELVILLE Jerome35FRA1:27:301:27:404:10 14.4454sehBOUVIGNY BOYEFFLES
123.3543MONSOREZ Gregory33BEL1:27:391:27:424:10 14.4455sehCOMINES
124.3956BOUDJEMA Karim31FRAUS MARQUETT1:27:491:27:494:10 14.4256sehMOUVAUX
125.3044DERUWEZ Filip40BEL1:27:541:27:544:10 14.4058vhWESTVLETEREN
126.4611WALRAEDT Elmer24BEL1:27:521:27:544:10 14.4057sehROESELARE
127.3740MARIAGE Sebastien39FRA1:27:571:28:064:11 14.3758sehHAVERSKERQUE
128.4503GHEYSEN Pol44BEL1:28:051:28:094:11 14.3659vhDADIZELE
129.5095BUCKMAN Franck37FRA1:27:381:28:104:11 14.3659sehLILLE
130.3529DHALLUIN Benoit33FRA1:28:101:28:124:11 14.3560sehBAILLEUL
131.4854DESODT Jan47BEL1:28:101:28:154:11 14.3560vhWERVIK
132.3396PITTELJON Rik48BELBEISBROEKLOPERS1:28:061:28:154:11 14.3461vhVARSENARE
133.4020PYPE Benedikt33BELDAPALO1:27:301:28:204:12 14.3361sehWESTROZEBEKE
134.3610RENARD Francois33FRA1:28:211:28:214:12 14.3362sehPFAFFENHEIM
135.4339HOUZET Jean Baptiste42FRA1:26:151:28:224:12 14.3362vhLA MADELEINE
136.3467KUJAWA Frederic33FRA1:27:441:28:224:12 14.3363sehARMENTIERES
137.4344DECLERCQ Philippe46BEL1:28:121:28:224:12 14.3263vhARC AINIERES
138.4850DECOSTER Ivan54BEL1:28:251:28:264:12 14.3264vhZWEVEGEM
139.4440LUYPAERT Dirk46BEL1:28:081:28:294:12 14.3165vhOOSTENDE
140.3709TITECA Christophe44BELJOG WARNETON1:28:311:28:314:12 14.3066vhCOMINES
141.3655DABLEMENT Pascal33FRASPORTING CLUB T1:28:291:28:324:12 14.3064sehCOMINES
142.3432FABRE Bertrand50FRA1:27:051:28:364:12 14.2967vhCOUDEKERQUE
143.4604VERBEECK Bart49BEL1:28:231:28:364:12 14.2968vhGENT
144.4603VERVAET Bert59BEL1:28:231:28:374:13 14.2969vhGENT
145.4635SOENEN Andy40BEL1:28:371:28:424:13 14.2770vhLAUWE
146.4704MEURS Sebastien36FRA1:28:321:28:494:13 14.2565sehCOUDEKERQUE BRANCHE
147.3736DROUART Laurent47FRA1:28:401:28:504:13 14.2571vhHALLUIN
148.3689DELESTREZ Ludovic37FRA1:28:471:28:524:13 14.2566sehBOIS GRENIER
149.3198PARESYS Tony31FRA1:28:511:28:564:13 14.2367sehHOUPLINES
150.3980DEVROEDE Norbert55BEL1:28:581:29:004:14 14.2272vh
DNF: did not finish; DSQ: disqualified; Speed in km/h
06/02/2023 - 09:56 - 1689 Entries
ChronoRace - Electronic Timing SPRL
http://www.chronorace.be

Page 3 / 34  
La Course du Souvenir
Jogging Ploegsteert, 11/11/2010, BEL
21.1km - Result
21.097km 
Category
PosNrNameAgeNATTeamRealTimeTkmMoy.PlaceNameCity
151.4662FENET Remy34FRA1:28:551:29:004:14 14.2268sehBORRE
152.4650DECLERCK Koen40BEL1:28:471:29:064:14 14.2173vhOUDENBURG
153.3434CLARISSE Raymond49FRA1:28:591:29:074:14 14.2174vhCOUDEKERQUE BRANCHE
154.4544CALLENS John44BEL1:28:411:29:124:14 14.1975vhHEULE
155.4597MANCHE David37BEL1:28:051:29:134:14 14.1969sehESTAIMPUIS
156.3650VANDERSCHELDEN Denis47FRA1:29:131:29:134:14 14.1976vhGONDECOURT
157.3816MONDON Pascal39FRA1:29:081:29:154:14 14.1870sehWASQUEHAL
158.3032VERSTRAETE Peter35BEL1:29:181:29:184:14 14.1871sehDIKSMUIDE
159.3024FDESEYN Carline44BELPARMENTIER SPOR1:29:291:29:294:15 14.151vfDEERLIJK
160.4840VERLINDE Marnik46BEL1:29:191:29:314:15 14.1477vhRUMBEKE
161.3009DEJAEGHER Bart40BEL1:29:341:29:344:15 14.1378vhLEKE
162.4458VANTHOURNOUT Joost46FRA1:29:321:29:364:15 14.1379vhTIELT
163.3582FOCKE Michel45FRA1:29:351:29:394:15 14.1280vhDUNKERQUE
164.4394VRANCKEN Jean49BEL1:29:291:29:404:15 14.1281vh
165.4978VILLEZ Alexandre10BEL1:28:571:29:424:16 14.111cahMENIN
166.3678COSTEUR Romain21FRA1:29:141:29:434:16 14.116eshLINSELLES
167.4975COSTEUR Christophe44FRA1:29:141:29:434:16 14.1182vhHEM
168.3502DEBOURSE Hugues39FRA1:29:401:29:444:16 14.1172sehLILLE
169.4785VERBOVEN Frank39BEL1:29:421:29:464:16 14.1073sehWERVIK
170.4309DE RYNCK Bruno26BEL1:29:511:29:514:16 14.0974sehPOPERINGE
171.4375HOLLEVOET Manuel44BEL1:27:291:29:554:16 14.0883vhBOEZINGE
172.3275FDEMUYNCK Annelies28BEL1:29:481:29:564:16 14.085sefBREDENE
173.4054MESTDAGH Tony52BELSODIBRUG1:29:441:29:584:16 14.0784vhASSEBROEK
174.3683BROUCK Frederik38BEL1:29:521:29:594:16 14.0775sehGELUWE
175.4980KINS Jeroen23BEL1:28:371:30:004:16 14.0776sehGELUWE
176.4988DETAVERNIER Lieven50BEL1:29:461:30:024:17 14.0685vhZWEVEGEM
177.4434VANDENBROUCKE Klaas29BEL1:30:021:30:054:17 14.0577sehGENT
178.3721LASAGE Thierry47FRA1:29:581:30:054:17 14.0586vhLINSELLES
179.3972COLPAERT Laurent40FRACOURIR AU MT. D1:30:061:30:084:17 14.0587vhBAILLEUL
180.4533GHESQUIERE Francky39BEL1:30:051:30:114:17 14.0478sehWERVIK
181.3071PADE Teddy36FRA1:30:091:30:114:17 14.0479sehHALLENNES LEZ HAUBOURDIN
182.3540METRO Jerome34FRA1:30:131:30:144:17 14.0380sehHOUPLINES
183.3429TURBOT Jean Pierre53FRA1:30:061:30:144:17 14.0388vhARMBOUTS CAPPEL
184.3193DELVOET Mickael19FRA1:30:091:30:154:17 14.033juhFLINES LES RACHES
185.5053CHOCHOIS Herve46FRA1:29:341:30:174:17 14.0289vhST FLORIS
186.5074LIAGRE Sylvain36FRA1:29:591:30:174:17 14.0281sehSTEENVOORDE
187.4380VANDEVOORDE Pascal43BEL1:30:141:30:194:17 14.0290vhWERVIK
188.4335GUILLAUME Christophe44BEL1:29:571:30:194:17 14.0291vhTOURNAI
189.3612WOSTYN Sebastien39FRA1:30:081:30:234:18 14.0182sehBOUSBECQUE
190.5075MAITRIAS Jean-Paul47FRA1:30:091:30:254:18 14.0092vhWASQUEHAL
191.4659DURITA Zolika46BEL1:30:041:30:264:18 14.0093vhENGHIEN
192.4885DELECOURT Olivier50FRA1:30:281:30:314:18 13.9994vhGONDECOURT
193.4737VANDEVOORDE Rino37BEL1:28:181:30:314:18 13.9983sehBAVIKHOVE
194.5107DECROIX Kristof42BEL1:30:301:30:344:18 13.9895vhPOTTES
195.3677SAINT-VENANT Benjamin36BEL1:30:271:30:364:18 13.9784sehCOMINES
196.3654BRONSARD Yoann35FRASPORTING CLUB T1:30:341:30:384:18 13.9785sehST AMAND LES EAUX
197.5083QIU Sam31FRA1:30:221:30:394:18 13.9686sehVILLENEUVE D ASCQ
198.3760SCHIETGAT Dominiek47BELCEUX DU LAC1:30:161:30:414:18 13.9696vhKORTRIJK
199.4527DE LOOF Geert55BEL1:30:271:30:424:18 13.9697vhZWEVEGEM
200.4708DEBACKER Curd38BEL1:30:351:30:474:19 13.9487sehBREDENE
DNF: did not finish; DSQ: disqualified; Speed in km/h
06/02/2023 - 09:56 - 1689 Entries
ChronoRace - Electronic Timing SPRL
http://www.chronorace.be

Page 4 / 34  
La Course du Souvenir
Jogging Ploegsteert, 11/11/2010, BEL
21.1km - Result
21.097km 
Category
PosNrNameAgeNATTeamRealTimeTkmMoy.PlaceNameCity
201.4707DE MAESENAIRE Pascal43BEL1:30:561:30:564:19 13.9298vhCOUILLET
202.3883DUQUESNOY Xavier47FRA1:30:521:30:574:19 13.9299vhFRELINGHIEN
203.3385HERMAN Philippe54FRABANQUE SCALBERT1:31:011:31:034:19 13.90100vhERQUINGHEM SUR LYS
204.3363FDE RIDDER Carol42BELCERATEC1:30:511:31:034:19 13.902vfHOOGLEDE
205.4652RYCKAERT Geert39BEL1:30:521:31:064:20 13.9088sehIEPER
206.3539FONCK Ludovic38FRA1:31:061:31:134:20 13.8889sehLA BASSEE
207.4887WILLEMSE Jeremie21FRA1:31:101:31:254:20 13.857eshMONTEVRAIN
208.3518COURTI Pierre25FRA1:31:081:31:254:20 13.8590sehSAILLY SUR LA LYS
209.4869CARTON Jan48BEL1:31:161:31:304:21 13.83101vhOOSTENDE
210.4419TIMMERMAN Sebastien26BEL1:29:221:31:314:21 13.8391sehMOUSCRON
211.4471CORTIER Johan41FRABN JOGGING1:31:181:31:344:21 13.83102vhGHYVELDE
212.4663TAKERKART Jean Denis49FRA1:31:321:31:364:21 13.82103vhMERICOURT
213.3139BOULME Gilles41FRA1:31:251:31:374:21 13.82104vhAMIENS
214.3979JANSSENS Jean-Philippe44FRA1:31:261:31:384:21 13.81105vhVIOLAINES
215.3187DELEVALLEE Denis30FRA1:31:171:31:484:22 13.7992sehCOURCELLES LES LENS
216.4965POLLET Stephane38FRA1:31:111:31:534:22 13.7893sehLYS LES LANNOY
217.5045WASTYN David35FRA1:31:531:31:534:22 13.7894sehMARCQ EN BAROEUL
218.3421FOSSARD Arnaud28FRA1:31:371:31:554:22 13.7795sehLILLE (CP 1)
219.4579DEHAENE Dominique34BEL1:31:561:31:584:22 13.7796sehIEPER
220.4424DECAESTECKER Kris38BEL1:30:541:31:584:22 13.7697sehROESELARE
221.3511DEMAN Pascal45FRA1:31:331:32:064:22 13.75106vhHAVERSKERQUE
222.4709DECOSTER Frederic27BEL1:31:561:32:084:23 13.7498sehIEPER
223.4350KOOPMAN Dirk48BEL1:32:041:32:104:23 13.74107vhWERVIK
224.3578DEPRIESTER Michael30FRA1:31:491:32:114:23 13.7399sehRENESCURE
225.4397TANGHE Philippe43BEL1:32:091:32:134:23 13.73108vh
226.4938WULBRECHT Geert41BEL1:32:031:32:144:23 13.72109vhROSELARE
227.4311DUVERNAY Francois42FRA1:32:081:32:154:23 13.72110vhLILLE (CP 1)
228.3656SCHEERS Dominique46BELCOURIR A COMINE1:32:131:32:184:23 13.72111vhCOMINES
229.4324MORIN Jean Marc46BEL1:31:581:32:194:23 13.71112vhPERUWELZ
230.4639BULTYNCK Giovanni32BEL1:32:221:32:224:23 13.70100sehOOSTNIEUWKERKE
231.5058DE CLEENE Herman50BEL1:32:031:32:354:24 13.67113vhMERELBEKE
232.5051CAZIER Fabrice45FRA1:32:361:32:374:24 13.67114vhBIERNE
233.3513VIL Didier45FRA1:32:111:32:384:24 13.67115vhAIRE SUR LA LYS
234.4851DE RYNCK Filip54BEL1:32:161:32:404:24 13.66116vhMARKE
235.3352VIGNE Michel46FRA1:32:031:32:414:24 13.66117vhCAPPELLE LA GRANDE
236.3835FDEPONDT Trui35BEL1:32:311:32:424:24 13.666sefOOSTENDE
237.3844BONNET Patrick40FRACC ARMENTIERES1:32:401:32:444:24 13.65118vhTOURCOING
238.3283MONSOREZ Alain47FRA1:32:311:32:444:24 13.65119vhHALLUIN
239.3842GARCETTE Frederic27FRACC ARMENTIERES1:32:431:32:454:24 13.65101sehERQUINGHEM LYS
240.4898PONTIER Karl40FRA1:32:491:32:494:24 13.64120vhMARLY
241.3395WILLEMS Jacques55BELBEISBROEKLOPERS1:31:531:32:504:24 13.64121vhBRUGGE
242.3515KENZI Djemel41BEL1:32:451:32:524:25 13.63122vhOEKENE
243.3402OMHS Peter52BELBEISBROEKLOPERS1:32:161:32:534:25 13.63123vhSINT ANDRIES
244.4897LOPEZ Olivier40FRA1:32:551:32:564:25 13.62124vhLAMBERSART
245.4058LECLERCQ Dominique51FRAFOULEES SAINGHI1:32:551:32:594:25 13.61125vhMARQUILLIES
246.3190ROBERT Christophe45FRA1:32:581:33:004:25 13.61126vhCARVIN
247.3345BECUWE David41FRA1:32:491:33:014:25 13.61127vhREXPOEDE
248.4841BRACKMAN Thierry40BEL1:32:571:33:024:25 13.61128vhVEURNE
249.3971PLETS Pascal50BEL1:33:011:33:024:25 13.61129vhBAS WARNETON
250.3138JOLY Jean Michel51FRA1:31:271:33:044:25 13.60130vhMORCOURT
DNF: did not finish; DSQ: disqualified; Speed in km/h
06/02/2023 - 09:56 - 1689 Entries
ChronoRace - Electronic Timing SPRL
http://www.chronorace.be

Page 5 / 34  
La Course du Souvenir
Jogging Ploegsteert, 11/11/2010, BEL
21.1km - Result
21.097km 
Category
PosNrNameAgeNATTeamRealTimeTkmMoy.PlaceNameCity
251.3761REMMERIE Siggi44BELCEUX DU LAC1:32:411:33:054:25 13.60131vhBELLEGEM
252.3405VANWELSENAERS Tom46BELBEISBROEKLOPERS1:31:531:33:064:25 13.60132vhBRUGGE
253.3391CORION Sylvain39FRA1:32:481:33:074:25 13.59102sehFOURNES EN WEPPES
254.3854VERSTRAETEN Stijn28BEL1:32:461:33:074:25 13.59103sehLEDEGEM
255.4010ELLEBOUDT Jean59FRAJOG WORMHOUT1:31:271:33:084:25 13.59133vhWORMHOUT
256.3221LEDOUX Frederic33FRAJA FRETIN1:33:011:33:124:26 13.58104sehBLARINGHEM
257.4330VANWYMELBEKE Filiep45BEL1:32:541:33:144:26 13.58134vhMARKE
258.3777DEKAEZEMAKER Joost41FRA1:33:061:33:144:26 13.58135vhIEPER
259.4462DEVRIENDT Johan47BEL1:33:031:33:164:26 13.57136vhOUDENBURG
260.4706PERETTI Serge43FRA1:33:151:33:174:26 13.57137vhHOUDAIN
261.4521NOTTEAU Jean Marie44FRA1:32:391:33:184:26 13.57138vhARRAS
262.4892COSSE Stephane38FRA1:32:531:33:204:26 13.56105sehLILLERS
263.3788DESROUSSEAUX Sebastien37FRA1:33:161:33:204:26 13.56106sehCOMINES
264.4615ALLIET Sergio38BEL1:32:581:33:204:26 13.56107sehROESELARE
265.5014DEBRAUWER Renaud37FRA1:33:051:33:204:26 13.56108sehLE DOULIEU
266.4494CHRISTIAENS Johan50BEL1:32:391:33:214:26 13.56139vhHARELBEKE
267.3447MARSZAL Claude52FRA1:33:191:33:224:26 13.56140vhBRUAY LA BUISSIERE
268.5056COUVREUR Patrick51FRA1:33:221:33:244:26 13.55141vhMARCQ EN BAROEUL
269.3473DECRETON Pascal48FRA1:32:461:33:254:26 13.55142vhARRAS
270.3657QUEMBRE Reynald40FRACOURIR A COMINE1:33:261:33:294:26 13.54143vhCOMINES
271.3093VASSE Nicolas28FRA1:33:241:33:314:26 13.54109sehRAISMES
272.3416DACOSSE Nicolas23BELCACB1:31:381:33:324:26 13.54110seh
273.4437TISON Alain59BEL1:33:291:33:344:27 13.53144vhEVERE
274.3766RAZERON Thibaut19BEL1:33:321:33:364:27 13.534juhCOMINES FRANCE
275.3558VERBEKE Dries45BEL1:33:261:33:364:27 13.52145vhPASSENDALE
276.3426KUHN Patrick61FRAJEAN MOULIN1:33:291:33:384:27 13.52146vhRAIMBEAUCOURT
277.4409D HONDT Philippe39BEL1:33:431:33:464:27 13.50111sehGELUVELD
278.3799VANDEGHINSTE Peter34BEL1:33:301:33:504:27 13.49112sehIEPER
279.5101FBARTZ Laurence41BEL1:33:511:33:524:27 13.493vfSTAMBRUGES
280.3872CARON Olivier35FRA1:32:411:33:524:27 13.49113sehMARQUETTE LES LILLE
281.3551VANDENWEGHE Juan31BEL1:33:151:33:534:27 13.48114sehGELUWE
282.4888COISNE Matthieu41FRA1:33:291:33:534:27 13.48147vhWASQUEHAL
283.4560FVANDER MEIREN Christa46BEL1:33:311:33:534:28 13.484vfGELUVELD
284.5057THIRIET Jerome42FRA1:33:221:33:554:28 13.48148vhLA MADELEINE
285.3593DELECOURT Alain43FRA1:33:511:33:574:28 13.48149vhFACHES THUMESNIL
286.4993BRUYNSTEEN Kurt41BELAC GUYNEMER1:33:541:33:574:28 13.47150vhLANGEMARK
287.4745GOTELAERE Geert41BEL1:33:511:33:594:28 13.47151vhWIELSBEKE
288.4418BRUGGEMAN Rik52BEL1:33:341:34:044:28 13.46152vhROESELARE
289.3516COURTI Daniel50FRA1:34:021:34:064:28 13.45153vhSAILLY S/LYS
290.3116FOUCAUT Philippe52FRA1:33:481:34:084:28 13.45154vhDUISANS
291.4910RANDOUX Fabien23FRA1:33:551:34:104:28 13.44115sehRETY
292.3338HUGARD Patrick52FRA1:33:301:34:114:28 13.44155vhHENIN BEAUMONT
293.3564SAINT AUBERT Michel65FRA1:34:071:34:124:28 13.44156vhBONDUES
294.4379VAN DER GHEYNST Pieter33BEL1:33:151:34:134:28 13.44116seh
295.4468KETELS Daniel61BELBN JOGGING1:34:161:34:164:29 13.43157vhOOSTENDE
296.3373VERSCHAEVE Emmanuel40BELCERATEC1:34:151:34:194:29 13.42158vhHOUTHEM
297.4395FVERBANCK Anouschka38BEL1:34:111:34:194:29 13.427sefVEURNE
298.3355PUTMAN Samuel29BEL1:32:241:34:194:29 13.42117sehWIELSBEKE
299.3965NEVEU Jacques55FRA1:34:071:34:214:29 13.42159vhTINCQUES
300.3587ROUSSEL Jean Luc51FRAUS LEFFRINCKOUC1:34:141:34:224:29 13.42160vhDUNKERQUE (CP 2)
DNF: did not finish; DSQ: disqualified; Speed in km/h
06/02/2023 - 09:56 - 1689 Entries
ChronoRace - Electronic Timing SPRL
http://www.chronorace.be

Page 6 / 34  
La Course du Souvenir
Jogging Ploegsteert, 11/11/2010, BEL
21.1km - Result
21.097km 
Category
PosNrNameAgeNATTeamRealTimeTkmMoy.PlaceNameCity
301.3255JONVILLE Armand44FRA1:33:151:34:234:29 13.41161vhMOUVAUX
302.4828PAUWELS Bart37BEL1:32:561:34:254:29 13.41118sehPOPERINGE
303.3597DEFRANCE Olivier35BEL1:33:421:34:284:29 13.40119seh
304.4532ALLEMAN Dominique38BEL1:34:201:34:284:29 13.40120sehLANGEMARK
305.4977VERBURGH Reinout40BEL1:33:171:34:294:29 13.40162vhROESELARE
306.3596RUDANT Jean Baptiste32FRA1:32:031:34:304:29 13.40121sehMONS EN BAROEUL
307.5044VAUVILLE Frederic48FRA1:32:391:34:314:29 13.39163vhWILLEMS
308.3820DUJARDIN Gregory33FRACOURIR A COMINE1:34:331:34:354:29 13.38122sehCOMINES
309.3292PODVIN Edouard22FRA1:33:341:34:354:29 13.388eshROUBAIX
310.3783VANDENBROUCKE Gerard56BEL1:34:171:34:374:30 13.38164vhCOMINES
311.4617DERVEAUX Denis37BEL1:33:591:34:384:30 13.38123sehZONNEBEKE
312.3514HERPELINCK Bart42BEL1:34:071:34:394:30 13.37165vhPOPERINGE
313.4585VAMOUR Nikos21BEL1:34:241:34:404:30 13.379esh
314.3185BERTIN Benjamin34FRA1:34:341:34:414:30 13.37124sehPERENCHIES
315.3967BAUVE Frederic39FRA1:34:411:34:424:30 13.37125sehVENDIN LE VIEL
316.3555FALLAERT Kyarah28BEL1:34:121:34:434:30 13.378sefIEPER
317.4873HOORELBEKE Marc52BEL1:34:411:34:434:30 13.36166vhLANGEMARK
318.4053BREBION Dany35FRAAS HARGECOURT1:33:351:34:494:30 13.35126sehHARGICOURT
319.3719ROHART Antoine45FRA1:34:211:34:524:30 13.35167vhQUESNOY SUR DEULE
320.4767PROVOST Rik47BEL1:34:421:34:554:30 13.34168vhOOSTENDE
321.3332BILLIET Nicolas40FRA1:34:041:34:554:30 13.34169vhGODEWAERSVELDE
322.3992GRODZISKI Jacky42FRA1:34:561:34:574:31 13.33170vhFESTUBERT
323.3200NYS Dimitri39BEL1:34:581:34:584:31 13.33127sehDOTTIGNIES
324.4822DELABIE Kevin27BEL1:34:581:34:584:31 13.33128sehHERINNES
325.3556DEWITTE Tom22BEL1:34:171:35:034:31 13.3210eshGELUWE
326.4410VANTHOMME Niek39BEL1:34:321:35:034:31 13.32129sehPOELKAPELLE
327.3393LAGACHE Sebastien35FRA1:34:071:35:054:31 13.31130sehSTE MARIE CAPPEL
328.4456D HAENE Rudy48BEL1:34:561:35:054:31 13.31171vhWORTEGEM PETEGEM
329.4777WYLIN Jos48BEL1:35:021:35:064:31 13.31172vhHEESTERT
330.4361PEETERS Luc39BEL1:34:411:35:094:31 13.31131sehTORHOUT
331.3137DORBANE Kaci45FRA1:34:591:35:094:31 13.30173vhCROIX
332.3575BRIDOUX Didier52FRA1:35:001:35:104:31 13.30174vhDUNKERQUE
333.4921FHUYSENTRUYT Inge43BEL1:35:091:35:114:31 13.305vfZWEVEGEM
334.4478DELECOUR Eric51FRA1:33:081:35:174:31 13.28175vhTOURCOING
335.3351GOUDIER Philippe34FRA1:35:071:35:184:32 13.28132sehEMMERIN
336.4781WITDOUCK Andy36BEL1:35:031:35:204:32 13.28133sehWEVELGEM
337.4846ROOSE Tony39BEL1:35:141:35:214:32 13.28134sehVICHTE
338.4445FLACONTE Carine49BEL1:35:111:35:254:32 13.276vfPOPERINGE
339.3146GESQUIERE Hein40BEL1:35:121:35:254:32 13.27176vhPOPERINGE
340.4406VAMOUR Rent Lau43FRA1:35:261:35:264:32 13.26177vhMARCQ EN BAROEUL
341.4360VAN LANCKER Rony53BEL1:35:191:35:274:32 13.26178vhWAREGEM
342.3194PERLEIN Stephane46FRA1:34:561:35:274:32 13.26179vhRACQUINGHEM
343.4626ROOS Joel42BEL1:35:241:35:284:32 13.26180vhFRASNES LES ANVAING
344.3952LALOY Didier47FRA1:34:471:35:294:32 13.26181vhAIRE
345.4488PARRET Dirk52BEL1:34:511:35:294:32 13.26182vhZONNEBEKE
346.3092TONDEUX Vincent48FRA1:35:281:35:304:32 13.26183vhMONS EN BAROEUL
347.4499VERMEERSCH Peter45BEL1:35:161:35:304:32 13.26184vhBREDENE
348.4876FDE JAEGERE Mia44BEL1:35:241:35:314:32 13.257vfANZEGEM
349.4352ANCKAERT Eddy55BEL1:35:241:35:314:32 13.25185vhWAREGEM
350.4433FMALFAIT Marjan53BEL1:35:381:35:414:33 13.238vfBLANKENBERGE
DNF: did not finish; DSQ: disqualified; Speed in km/h
06/02/2023 - 09:56 - 1689 Entries
ChronoRace - Electronic Timing SPRL
http://www.chronorace.be

Page 7 / 34  
La Course du Souvenir
Jogging Ploegsteert, 11/11/2010, BEL
21.1km - Result
21.097km 
Category
PosNrNameAgeNATTeamRealTimeTkmMoy.PlaceNameCity
351.3175DEVOS Martin56BELBN JOGGING1:35:421:35:424:33 13.23186vhBEERNEM
352.3384SCHMIDT Julien33FRABANQUE SCALBERT1:35:461:35:484:33 13.21135sehLOMME
353.4808VERQUAIN Pascal39FRA1:34:131:35:534:33 13.20136sehHALLUIN
354.4918FVANBESIEN Ria46BEL1:35:101:35:554:33 13.209vfOOSTNIEUWKERKE
355.4487DEVOOGDT Koen42BEL1:35:401:35:584:33 13.19187vhIEPER
356.3077COQUET Philippe47FRA1:35:591:35:594:33 13.19188vhVILLENEUVE D'ASCQ
357.4740BRUGGEMAN Geert48BEL1:34:431:36:044:34 13.18189vhBRUGGE
358.5077MORGAN Patrick47FRA1:35:541:36:124:34 13.16190vhWASQUEHAL
359.4321OOSTHUYSE Filip48BEL1:36:111:36:134:34 13.16191vhHEVERLEE
360.4810LEMAITRE Christophe40FRA1:35:381:36:144:34 13.15192vhRACHES
361.5070LECOINTE Eddy41FRA1:36:051:36:144:34 13.15193vhVILLENEUVE D ASCQ
362.4895VANDECASTEELE Arnaud36FRA1:35:331:36:144:34 13.15137sehFLINES LES RACHES
363.3611LAFERE Geert52BEL1:36:041:36:174:34 13.15194vhHEULE
364.3324DELFORGE David38FRA1:35:391:36:204:34 13.14138sehANNEZIN
365.3822DANJOU Pascal42FRA1:36:091:36:214:34 13.14195vhNIEPPE
366.3102DENUNCQ Nicolas32FRA1:36:111:36:234:35 13.13139sehRONCHIN
367.4868DURNEZ Bart22BEL1:35:161:36:264:35 13.1311eshGELUWE
368.3245JOLY Jean Marc46FRASNCF1:36:161:36:274:35 13.13196vhNOMAIN
369.3970GODELLE Yannick40FRA1:36:161:36:274:35 13.12197vhCOMINES
370.4345MARCUZ Philippe57BEL1:36:221:36:284:35 13.12198vhMT.SAINT GUILBERT
371.3745GORCZAK Alain50FRA1:36:121:36:294:35 13.12199vhQUESNOY SUR DEULE
372.3733DUSSART David31FRA1:36:101:36:314:35 13.12140sehEECKE
373.3164LEROY Michel51FRA1:36:011:36:324:35 13.11200vhVILLENEUVE D ACSQ
374.5100DEPRAETERE Rik49FRANLT1:36:281:36:334:35 13.11201vhZWEVEGEM
375.4906DUHAMEL Laurent34FRA1:36:041:36:344:35 13.11141sehLIEVIN
376.4004BEYAERT Luc40FRAJOG WORMHOUT1:35:331:36:354:35 13.11202vhBAMBECQUE
377.5043TROUILLEZ Alain49FRA1:36:431:36:444:36 13.09203vhSANTES
378.4514PERRAULT Stephane39FRA1:36:321:36:454:36 13.09142sehPREMESQUES
379.4365VANDENBROUCKE Guido53BEL1:36:271:36:474:36 13.08204vhWOUMEN
380.4952FHALLAIS Laure31FRA1:36:211:36:484:36 13.089sefWASQUEHAL
381.3361COULLEIT Kevin17BELCERATEC1:36:431:36:514:36 13.072cahWARNETON
382.4859DECEUNINCK Patrick53BEL1:36:501:36:514:36 13.07205vhIZEGEM
383.3702LEFEBVRE Ronan36FRAAC CHAPELLOIS1:36:251:36:544:36 13.06143sehCHAPELLE D ARMENTIERES
384.3931CARTON Jean-Michel53FRA1:36:541:36:554:36 13.06206vhGODEWAERSVELDE
385.3231LEROY Jean Baptiste29FRA1:36:331:36:574:36 13.06144sehSAVY BERLETTE
386.3796PLESSERS Stijn27FRA1:36:161:37:004:36 13.05145sehANTWERPEN
387.4802ROLAND Christian42FRA1:36:521:37:024:36 13.05207vhMOUVAUX
388.4746CASTELEIN Christophe34BEL1:36:391:37:034:37 13.04146sehGELUWE
389.4787DE BRUYNE Marc52BEL1:36:571:37:054:37 13.04208vhWORTEGEM PETEGEM
390.3356MOREAU Cedric36FRA1:34:401:37:054:37 13.04147sehISBERGUES
391.3123DRUART Sebastien33FRA1:36:441:37:054:37 13.04148sehHOUPLINES
392.3148BUSSCHAERT Marc59BEL1:37:051:37:054:37 13.04209vhPOPERINGE
393.3565TURGOT Vincent51FRA1:37:011:37:064:37 13.04210vhLAMBERSART
394.5042TONDEUR Philippe46FRA1:37:071:37:104:37 13.03211vhNEUVILLE EN FERRAIN
395.3206DEWITTE Pieter30BEL1:36:341:37:104:37 13.03149sehVOORMEZELE
396.3927PARDON Jean Christophe26BEL1:36:591:37:124:37 13.02150sehNIVELLES
397.3725CONDETTE Luc45FRA1:36:341:37:184:37 13.01212vhCROCHTE
398.3359BRUNELLE Yannick41FRACERATEC1:37:001:37:184:37 13.01213vhBAILLEUL
399.4724BAILLIE Alexandre36FRA1:37:051:37:204:37 13.01151sehHALLUIN
400.4776DEJAEGERE Jean Claude50BEL1:37:101:37:214:37 13.00214vhKORTRIJK
DNF: did not finish; DSQ: disqualified; Speed in km/h
06/02/2023 - 09:56 - 1689 Entries
ChronoRace - Electronic Timing SPRL
http://www.chronorace.be

Page 8 / 34  
La Course du Souvenir
Jogging Ploegsteert, 11/11/2010, BEL
21.1km - Result
21.097km 
Category
PosNrNameAgeNATTeamRealTimeTkmMoy.PlaceNameCity
401.3920GUIBERT Bertrand35FRA1:37:181:37:244:37 13.00152sehCOMINES
402.4483GADEYNE Bart50BEL1:36:221:37:264:38 12.99215vhROESELARE
403.3196FDOURLENS Pascaline41FRA1:37:171:37:274:38 12.9910vfHOULLE
404.4689FDUCROCQ Aureline27FRA1:37:031:37:274:38 12.9910sefTOULOUSE (CP 1)
405.5049BAYART Emeric29FRA1:36:541:37:274:38 12.99153sehLILLE
406.3250VANHILLE Alain51FRA1:37:121:37:284:38 12.99216vhTETEGHEM
407.3638BRUNEEL Olivier44BEL1:37:211:37:304:38 12.98217vhPOPERINGE
408.3438ROUSSEL Didier46FRA1:37:041:37:304:38 12.98218vhLA GORGUE
409.3944COULON Herve46FRAARCELOR1:36:461:37:314:38 12.98219vhROBECQ
410.3860FILEZ Yann27FRA1:36:381:37:334:38 12.98154sehLINSELLES
411.4896FRIENCK Nicolas39FRA1:37:181:37:334:38 12.98155sehLE DOULIEU
412.3561LANSIAUX Fabrice50FRA1:37:111:37:334:38 12.98220vhLAMBERSART
413.4733HALEWYCK Bart48BEL1:36:471:37:354:38 12.97221vhGISTEL
414.4771DE LOMBAERDE Jan46BEL1:36:211:37:354:38 12.97222vhKROMBEKE
415.3887LE TEUN Yves39FRA1:37:271:37:374:38 12.97156sehHEM
416.3711HENNEBICQ Mathieuh28FRA1:35:581:37:374:38 12.97157sehWASQUEHAL
417.3963REGNIER Andy26FRA1:37:061:37:384:38 12.97158sehMARCQ EN BAROEUL
418.3383DEWULF Patrice52FRABANQUE SCALBERT1:37:351:37:404:38 12.96223vhERQUINGHEM LYS
419.4035CATTACIN Jean Luc43FRA1:36:451:37:424:38 12.96224vhCOURRIERES
420.4453VAN OOST Jan45BEL1:36:401:37:444:38 12.95225vhROESELARE
421.3451DELESTREES Emmanuel40FRA1:36:361:37:444:38 12.95226vhHARGICOURT
422.3858DHALLUIN Denis41FRA1:37:321:37:464:39 12.95227vhNEUVILLE EN FERRAIN
423.3532MILLOT Patrick53FRA1:37:381:37:464:39 12.95228vhBILLY BERCLAU
424.3985MALLET Didier58FRA1:37:431:37:494:39 12.94229vhLAMBERSART
425.3160PIWINSKI Olivier38FRA1:37:201:37:504:39 12.94159sehSALOME
426.4316BATTHEU Michiel39BEL1:37:351:37:514:39 12.94160seh
427.5072LEON Richard42FRA1:37:031:37:514:39 12.94230vhBERGUES
428.4613DEJONGHE Dimitri42BEL1:37:361:37:514:39 12.94231vhIEPER
429.3439DELAUTEL Patrick44FRA1:37:201:37:544:39 12.93232vhMERVILLE
430.3990BONNET Laurent35BEL1:37:191:37:544:39 12.93161seh
431.4814LIGNIER Mathieu30FRA1:36:391:37:554:39 12.93162sehVERQUIN
432.4658DURITA Janika46BEL1:37:341:37:554:39 12.93233vhENGHIEN
433.3828FAGGOUNE Cyndelle19BEL1:36:491:37:564:39 12.931juf
434.4692REGNIER Laurent39FRA1:37:431:37:574:39 12.92163sehTOUFFLERS
435.4731BOSSUT Pascal48FRA1:37:281:37:594:39 12.92234vhHEM
436.3300DELVOET Patrick42FRA1:37:551:38:014:39 12.92235vhFLINES LES RACHES
437.4447POLAK Ad53BEL1:38:021:38:024:39 12.91236vhWUUSTWEZEL
438.5063DESJARDINS Guillaume23FRA1:37:081:38:044:39 12.91164sehSAINT QUENTIN
439.4584VAMOUR Philippe52FRA1:37:511:38:064:39 12.91237vhMARCQ EN BAROEUL
440.3381CARTENET Jerome37FRABANQUE SCALBERT1:38:051:38:084:40 12.90165sehPERENCHIES
441.4995BONTE Piet42BEL1:38:011:38:094:40 12.90238vhMOORSELE
442.3753PREDHOMME David40FRA1:38:081:38:114:40 12.89239vhMARQUETTE LES LILLE
443.4862EGGERMONT Pedro34BEL1:37:521:38:114:40 12.89166sehMOORSELE
444.3966KESTELOOT Olivier41FRA1:38:121:38:134:40 12.89240vhSTEENWERCK
445.3687TOULEMONDE Max20FRA1:35:551:38:174:40 12.8812eshWASQUEHAL
446.3325HOVE Philippe42FRA1:36:081:38:184:40 12.88241vhBRUAY LA BUISSIERE
447.4609DESMET Robbe18BEL1:36:211:38:184:40 12.885juhKUURNE
448.3978RENARD Frederic33FRA1:38:201:38:214:40 12.87167sehWAHAGNIES
449.5086STATS Philippe44FRA1:37:551:38:224:40 12.87242vhHOEILAART
450.3076HUBERT Thomas31FRA1:38:111:38:234:40 12.87168sehBILLY MONTIGNY
DNF: did not finish; DSQ: disqualified; Speed in km/h
06/02/2023 - 09:56 - 1689 Entries
ChronoRace - Electronic Timing SPRL
http://www.chronorace.be

Page 9 / 34  
La Course du Souvenir
Jogging Ploegsteert, 11/11/2010, BEL
21.1km - Result
21.097km 
Category
PosNrNameAgeNATTeamRealTimeTkmMoy.PlaceNameCity
451.4962MOUQUET Jean43FRA1:37:401:38:234:40 12.87243vhSAINT VENANT
452.4032ALLARD Thierry47FRA1:38:041:38:264:40 12.86244vhST JANS CAPPEL
453.4403THIBERGIN Jan42BEL1:38:341:38:344:41 12.84245vhSTADEN
454.3163DROUIN Donatien25FRA1:38:311:38:374:41 12.84169sehLILLE (CP 2)
455.3893VAN ACHTER Benoit30BEL1:38:211:38:394:41 12.83170sehHOUTHEM
456.4769BUSSCHAERT Joost43BEL1:37:421:38:544:42 12.80246vhZARREN
457.3808LEFRANC Olivier43FRA1:38:491:38:564:42 12.80247vhFLEURBAIX
458.4842FSTRUYVE Marleen42BEL1:38:441:38:584:42 12.7911vfLOKER
459.4401HOUDART Franck45FRA1:38:261:38:594:42 12.79248vhTRITH SAINT LEGER
460.5097COSYN Bart42BEL1:38:181:38:594:42 12.79249vhDRONGEN
461.4973HESPEL Damien41FRA1:38:101:39:004:42 12.79250vhBONDUES
462.3641ISBLED Pascal46BEL1:38:451:39:004:42 12.79251vhNIEUWKERKE
463.4543DEJONCKHEERE Patrick53BEL1:39:021:39:024:42 12.78252vhROESALARE
464.3888PELC Pascal44FRA1:38:401:39:034:42 12.78253vhNIEPPE
465.3088BOLLENGIER Christophe43FRA1:39:061:39:064:42 12.77254vhLYNDE
466.4524LABIS Herve39FRA1:38:261:39:074:42 12.77171sehHAUBOURDIN
467.4757FCALLENS Rita51BEL1:37:481:39:084:42 12.7712vfROESELARE
468.3879SAPELIER Gregory39FRA1:39:091:39:104:43 12.76172sehHAVERSKERQUE
469.3892VASSEUR Matthieu22FRA1:39:111:39:114:43 12.7613eshSAINT FOLQUIN
470.4838AMEZ Patrick49BEL1:39:031:39:114:43 12.76255vhWAREGEM
471.3727VERMEERE Philippe50FRA1:38:121:39:124:43 12.76256vhHALLUIN
472.4558COLLIE Stephane47BEL1:38:291:39:124:43 12.76257vhIEPER
473.4989VAN COILLIE Patrick48BEL1:39:001:39:134:43 12.76258vhROESELARE
474.3847SPAGNOL Yann22FRA1:38:261:39:154:43 12.7614eshARMENTIERES
475.3477SCHEERS Cyril25FRA1:38:431:39:164:43 12.75173sehHAVERSKERQUE
476.4882PRIEM Danny47BEL1:38:291:39:184:43 12.75259vhOOSTROZEBEKE
477.3934DELAERE Pedro39BEL1:39:021:39:204:43 12.75174sehINGELMUNSTER
478.4364BRULEZ Bart41BEL1:37:141:39:224:43 12.74260vhOOSTENDE
479.4654MOERMAN Bart48BEL1:38:091:39:224:43 12.74261vhROESELARE
480.3340MAHIEUX Jean Luc49FRA1:38:171:39:234:43 12.74262vhCALAIS
481.4726SOLOVIEV Serguei40BEL1:38:381:39:264:43 12.73263vhLOUVAIN LA NEUVE
482.5010COIN Jean Eudes21FRA1:39:011:39:304:43 12.7215eshAGNEZ LES DUISSANS
483.4509LONCKE Marnix42BEL1:38:571:39:314:43 12.72264vhOEKENE
484.3929DE WITTE Alex40BEL1:39:231:39:324:44 12.72265vhBAS WARNETON
485.4405GEERTS Alain49BEL1:38:451:39:334:44 12.72266vhLOUVAIN LA NEUVE
486.4482FEVRIER Marc52FRA1:38:591:39:344:44 12.72267vhBAUVIN
487.4572VALLAEYS Bart47BEL1:39:171:39:364:44 12.71268vhPOPERINGE
488.4436GOBERT Dominique45BEL1:38:551:39:394:44 12.70269vhLA LOUVIERE
489.3577COIGNON Alain47FRA1:39:291:39:394:44 12.70270vhTETEGHEM
490.3642DANCKAERT Gery46FRA1:38:281:39:404:44 12.70271vhSAILLY /LYS
491.3708MARESCAUX Gilles43FRA1:39:261:39:424:44 12.70272vhRONCQ
492.4012LEROUGE Marc51FRAWORMHOUT1:39:251:39:424:44 12.70273vhWYLDER
493.4721FDENEVE Catherine48FRA1:39:141:39:434:44 12.6913vfHEM
494.4908DE PAUW Marc47BEL1:38:361:39:434:44 12.69274vhOVERIJSE
495.3029RABAEY Peter40BEL1:38:151:39:444:44 12.69275vhDE PANNE ADINKERQUE
496.4853DESCHEPPER Curt43BEL1:39:311:39:464:44 12.69276vhMOORSELE
497.4877DEBUYCK Kurt40BEL1:39:401:39:474:44 12.69277vhMOORSELE
498.3937CASTRIQUE Jean-Yves33BEL1:39:081:39:484:44 12.68175sehPLOEGSTEERT
499.4974BRABANT Gregory33FRA1:39:231:39:494:44 12.68176sehHEM
500.5102VANHAUWAERT Bert28BEL1:39:311:39:504:44 12.68177sehLAUWE
DNF: did not finish; DSQ: disqualified; Speed in km/h
06/02/2023 - 09:56 - 1689 Entries
ChronoRace - Electronic Timing SPRL
http://www.chronorace.be

Page 10 / 34  
La Course du Souvenir
Jogging Ploegsteert, 11/11/2010, BEL
21.1km - Result
21.097km 
Category
PosNrNameAgeNATTeamRealTimeTkmMoy.PlaceNameCity
501.5019DEQUIDT Pierre-Louis21FRA1:38:441:39:514:44 12.6816eshLILLE (CP 1)
502.5029LEBEAU Pierre38FRA1:38:581:39:524:44 12.68178sehHERIN
503.3199SASIM Gregory33BEL1:39:521:39:524:44 12.68179sehDOTTIGNIES
504.3492VERBEKE Alban24FRA1:39:461:39:524:44 12.68180sehQUESNOY SUR DEULE
505.3734MONTAGNE Ludovic25FRA1:39:321:39:534:45 12.67181sehLILLE (CP 1)
506.3329LOEUILLIEUX Francois26FRA1:39:441:39:544:45 12.67182sehLILLERS
507.4332ROSSEEL Paul47BEL1:39:311:39:564:45 12.67278vhVEURNE
508.3544KLOPCIC Patrick33FRA1:39:531:39:584:45 12.66183sehWAVRIN
509.5104GOOSENS Gerrit26BEL1:37:411:39:594:45 12.66184sehKORTRIJK
510.3214MORANT Frederic37FRAJA FRETIN1:39:441:40:004:45 12.66185sehRONCQ
511.4932TAELMAN Marc59BEL1:39:271:40:014:45 12.66279vhHARELBEKE
512.3939DEMEERCLEERE Luc39FRA1:39:351:40:044:45 12.65186sehLILLE
513.3815DEWINTRE Lionel45FRA1:39:441:40:054:45 12.65280vhFLEURBAIX
514.4934FLAZOU Linda49BEL1:39:471:40:064:45 12.6514vfANZEGEM
515.3779LEYS Bart38BEL1:39:471:40:084:45 12.64187sehPOPERINGE
516.4957BROUWERS Bruno39FRA1:39:531:40:134:45 12.63188sehANOR
517.3746DEFER Pierre Yves51FRA1:38:401:40:154:46 12.63281vhLAMBERSART
518.3850SPAGNOL Jean46FRA1:39:271:40:164:46 12.63282vhARMENTIERES
519.3800BRUNET Gerard54FRA1:40:141:40:174:46 12.62283vhCOMINES
520.3875MAHLMANN Thierry43FRA1:39:491:40:274:46 12.60284vhLESTREM
521.4439JAECQUES Lieven45BEL1:39:491:40:294:46 12.60285vhHOOGLEDE
522.3669COSTE Philippe45FRA1:40:161:40:314:46 12.59286vhFRELINGHIEN
522.4518MEUNIER Francois47FRA1:39:091:40:314:46 12.59286vhVILLENEUVE D ASCQ
524.3975NOTTE Xavier40FRA1:40:251:40:344:46 12.59288vhLOOS
525.3960VANDE VYVER Rik44BELUS MARQUETT1:40:131:40:344:46 12.59289vhHARELBEKE
526.5088DEVOLDERE Frederiek37BEL1:39:491:40:354:47 12.59189sehKORTRIJK
527.3440LEGERE Philippe52FRA1:40:161:40:354:47 12.58290vhLIEVIN
528.3958PANI Fabien36FRAUS MARQUETT1:39:451:40:364:47 12.58190sehLINSELLES
529.3998ROSE David40BEL1:39:551:40:384:47 12.58291vhPLOEGSTEERT
530.3247VAN LAERHOVENEN Bart39BEL1:40:131:40:434:47 12.57191sehPUTTE NEDERLANDS
531.4720VAESKEN Michel49FRA1:39:361:40:484:47 12.56292vhMORBECQUE
532.3589VAT Julien22FRA1:39:491:40:494:47 12.5617eshHAM EN ARTOIS
533.3775WILLAERT Filip55BEL1:40:201:40:514:47 12.55293vhVEURNE
534.3215MAERTENS Christophe39BELJA FRETIN1:40:351:40:524:47 12.55192sehHERSEAUX
535.3846BENOIT Lode51BELCC ARMENTIERES1:39:451:40:524:47 12.55294vhHEULE
536.3159GAEREMYNCK Thierry47FRALA MONDIALE1:38:351:40:534:47 12.55295vhVILLENEUVE D ASCQ
537.3150FGOUWY Katrien51BEL1:40:541:40:544:47 12.5515vfKEMMEL
538.4498GEVAERT Jurgen28BEL1:38:561:40:594:48 12.54193sehGENTBRUGGE
539.4693BRUNIAUX Pascal35FRA1:40:201:41:044:48 12.53194sehCRESPIN
540.4758NYS Sebastien32FRA1:40:191:41:044:48 12.53195sehIWUY
541.4744VANHOUTTE Johny46BEL1:38:351:41:044:48 12.53296vhWERVICK
542.3512DELATTRE David38FRA1:40:541:41:054:48 12.52196sehQUESNOY SUR DEULE
543.3111PACQUE Hans47BEL1:41:071:41:074:48 12.52297vhNIEUWPOORT
544.4052RAILLEUL Patrick57BEL1:39:001:41:094:48 12.52298vhWESTKAPELLE
545.3100VILT Olivier37FRA1:40:391:41:114:48 12.51197sehPERENCHIES
546.5040SAUVAGE Stephane34FRA1:40:501:41:164:49 12.50198sehEMMERIN
547.4763HAUTECOEUR Stephane38FRA1:40:501:41:174:49 12.50199sehEMMERIN
548.4051DECOO Robert62BEL12BO41:41:051:41:184:49 12.50299vhMIDDELKERKE
549.3403SYRYN Filip46BELBEISBROEKLOPERS1:40:361:41:184:49 12.50300vhJABBEKE
550.3946SURGA Stephane52FRAARCELOR1:41:091:41:194:49 12.49301vhGUARBECQUE
DNF: did not finish; DSQ: disqualified; Speed in km/h
06/02/2023 - 09:56 - 1689 Entries
ChronoRace - Electronic Timing SPRL
http://www.chronorace.be

Page 11 / 34  
La Course du Souvenir
Jogging Ploegsteert, 11/11/2010, BEL
21.1km - Result
21.097km 
Category
PosNrNameAgeNATTeamRealTimeTkmMoy.PlaceNameCity
551.3178VANGHELUWE Stefaan45BEL1:41:171:41:224:49 12.49302vhSTADEN
552.4618NOTE Tony34BEL1:40:371:41:254:49 12.48200sehREKKEM
553.3932LECOUFFE Herve40FRA1:40:131:41:284:49 12.48303vhSTEENWERCK
554.3162MOREAU Geoffrey28FRA1:41:221:41:294:49 12.47201sehRAILLENCOURT STE OLLE
555.3216BECK Freddy36FRAJA FRETIN1:40:071:41:304:49 12.47202sehESTEVELLES
556.4914DECLERCQ Johan46BEL1:40:321:41:304:49 12.47304vhROESELARE
557.4537MOREELS Fabrice40BEL1:41:221:41:314:49 12.47305vhLUINGNE
558.3213VAN OPDORP Adrie60BELJA FRETIN1:41:011:41:324:49 12.47306vhHOOGERHEIDE NEDERLAND
559.3859HILLEWAERE Koen42BEL1:40:481:41:334:49 12.47307vhROESELARE
560.4376VANDEN BERGHE Francis40BEL1:40:351:41:344:49 12.46308vhGENT
561.3759LOSFELD Renaud36FRACEUX DU LAC1:40:461:41:374:49 12.46203sehCROIX
562.4385DUBUS Christophe42BEL1:41:291:41:384:50 12.45309vhAALBEKE
563.3195CARLIER Christophe43FRA1:40:451:41:394:50 12.45310vhLOOS
564.4371MILLON Adrien28FRA1:40:511:41:404:50 12.45204sehLILLE (CP 1)
565.3294GUILLET Arnaud37FRA1:41:211:41:404:50 12.45205sehLILLERS
566.4738VAN NIEUWENHOVE Georges66BEL1:41:321:41:414:50 12.45311vhHARELBEKE
567.4556DEBEURME Lieven57BEL1:41:251:41:414:50 12.45312vhHARELBEKE
568.4500VAN PARYS Geert51BEL1:41:121:41:414:50 12.45313vhDAMME
569.4735VANDEVOORDE Kristof38BEL1:41:431:41:434:50 12.45206sehBAVINKHOVE
570.3584HOUSSIN Mathias55FRA1:41:081:41:434:50 12.45314vhDUNKERQUE
571.3574BONVOISIN Antoine53FRA1:41:081:41:434:50 12.45315vhDUNKERQUE (CP 2)
572.4400DILLIES Bruno37FRA1:41:221:41:454:50 12.44207sehLILLE (CP 1)
573.3928CATTEAU Laurent42FRA1:40:561:41:454:50 12.44316vhBONDUES
574.4761NASRI Mohamed31FRA1:41:311:41:464:50 12.44208sehHALLUIN
575.3983LAMBLIN Christophe43FRA1:40:591:41:484:50 12.44317vhWAMBRECHIES
576.3553FAUVARQUE Bjorn33BEL1:41:341:41:484:50 12.44209sehBESELARE
577.3688TOULEMONDE Geoffroy49FRA1:41:001:41:484:50 12.44318vhWASQUEHAL
578.3276PARMENTIER Xavier55BEL1:41:331:41:484:50 12.43319vhMOUSCRON
579.3570BRACKE Wim42BEL1:40:501:41:504:50 12.43320vhRUMBEKE
580.3118DELOS Francois45FRA1:40:151:41:504:50 12.43321vhLINSELLES
581.3389OUDART Eric57FRA1:41:451:41:514:50 12.43322vhLAMBERSART
582.3824MAES Patrice49FRA1:41:291:41:524:50 12.43323vhARMENTIŠRES
583.4530GRAMMENS Vincent37BEL1:41:091:41:554:50 12.42210sehSAINT LEGER
584.4773VANTOMME Axel46BEL1:39:401:41:554:50 12.42324vhGULLEGEM
585.3478SCHEERS Jean Michel50FRA1:41:221:41:564:50 12.42325vhMERVILLE
586.4878RAU Peter45BEL1:41:011:41:564:50 12.42326vhOOSTENDE
587.3905RUHANT Sebastien33FRAVELOURS1:40:591:41:564:50 12.42211sehMETEREN
588.3376DERRICHE Djamel40FRA1:41:511:41:574:50 12.42327vhBULLY LES MINES
589.3353VANHELST Yannick44FRA1:41:251:42:014:51 12.41328vhCOUDEKERQUE BRANCHE
590.3161DI BARTOLO Alexandre40FRA1:41:461:42:024:51 12.41329vhRONCQ
591.3629TOLINO Agostino32FRA1:40:561:42:024:51 12.41212sehROUBAIX
592.3623DELABY Manuel23FRA1:40:561:42:024:51 12.41213sehQUESNOY SUR DEULE
593.3996ROHAUT Christophe38FRA1:41:261:42:034:51 12.41214sehWICRES
594.3910DUDERMEL Olivier38FRAVELOURS1:41:141:42:034:51 12.40215sehSECLIN
595.4059FTIBERGHIEN Raphaelle39BELLESAFFRE1:40:561:42:034:51 12.4011sef
596.3714BOTTEZ Patrick46BELPICANOL1:41:421:42:044:51 12.40330vhIEPER
597.3098LOOTVOET Franck41FRA1:41:311:42:044:51 12.40331vhEPERLECQUES
598.4607SCHOTTE Christophe41BEL1:41:301:42:044:51 12.40332vhBRUGGE
599.4347BIGO Olivier48BEL1:41:171:42:054:51 12.40333vh
600.4983MALLEZIE Bart45BEL1:41:231:42:054:51 12.40334vhGITS
DNF: did not finish; DSQ: disqualified; Speed in km/h
06/02/2023 - 09:56 - 1689 Entries
ChronoRace - Electronic Timing SPRL
http://www.chronorace.be

Page 12 / 34  
La Course du Souvenir
Jogging Ploegsteert, 11/11/2010, BEL
21.1km - Result
21.097km 
Category
PosNrNameAgeNATTeamRealTimeTkmMoy.PlaceNameCity
601.3254ALLIENNE Yves48FRA1:41:581:42:064:51 12.40335vhHALLENNES LES HAUBOURDIN
602.3222VOLANT Arnaud46FRAJA FRETIN1:41:081:42:084:51 12.39336vhFACHES THUSMENIL
603.3819VANLERBERGHE Mathieu37FRA1:40:151:42:114:51 12.39216sehVERLINGHEM
604.4904LECOUR GRANDMAISON Yves Marie23FRA1:40:111:42:164:51 12.38217sehLILLE
605.4835DEDRIE Philippe44BEL1:42:121:42:194:51 12.37337vhROESELARE
606.3069LABY Marcel53FRA1:40:541:42:194:51 12.37338vhBEAUVOIS EN CAMBRESIS
607.4559FLOUWAGIE Nele35BEL1:41:501:42:194:51 12.3712sefPOELKAPELLE
608.3679VERSAILLE Martin21FRA1:41:501:42:204:52 12.3718eshLINSELLES
609.4342MORIN Fabrice44FRA1:42:021:42:214:52 12.37339vhLEERS
610.3433MONTEUUIS Julien28FRA1:41:101:42:224:52 12.37218sehUXEM
611.4839FVANDENBUSSCHE Lut53BEL1:41:581:42:224:52 12.3716vfMARKE
612.3414NEMPON Daniel42BELCACB1:41:141:42:234:52 12.36340vh
613.3793DE SMIDT Jan47BELKBC1:42:021:42:234:52 12.36341vhBESELARE
614.4886DESSAINT Sebastien28FRA1:41:121:42:234:52 12.36219sehRONCQ
615.4463FSTRUBBE Fabienne43BEL1:42:111:42:244:52 12.3617vf
616.4875NAAERT Marc45BEL1:42:171:42:254:52 12.36342vhDADIZELE
617.4809GALLET Herve44FRA1:42:101:42:284:52 12.35343vhLYS LES LANNOY
618.3853HOLLEBECQUE Frederic39FRA1:42:111:42:294:52 12.35220sehPREMESQUES
619.3460BUISINE Laurent41FRAFOULEES SAINGH.1:41:351:42:304:52 12.35344vhWAVRIN
620.3925SPEYBROEK David40FRA1:42:231:42:304:52 12.35345vhROUBAIX
621.3230VANNIEUWENHUYSE Bernard55FRAASPTT DUNKERQUE1:41:571:42:314:52 12.35346vhBAUVIN
622.3466MARTIN Philippe45FRAFOULEES SAINGH.1:41:571:42:324:52 12.35347vhBAUVIN
623.3253HAESE Laurent51FRA1:42:121:42:324:52 12.35348vhTOURCOING
624.4786DE BROUWERE Johan51BEL1:41:501:42:324:52 12.35349vhROESELARE
625.3346LECLERCQ Franck46FRA1:41:521:42:344:52 12.34350vhMARCQ EN BAROEUL
626.4723FBAUTERS Anne47FRA1:40:471:42:354:52 12.3418vfMARCQ EN BAROEUL
627.3094FOUANT Yves55FRA1:41:531:42:364:52 12.34351vhAIX NOULETTE
628.3217FOURNIER Bernard42FRAJA FRETIN1:42:221:42:394:52 12.33352vhWASQUEHAL
629.3218CAGNIART Guillaume37FRAJA FRETIN1:41:501:42:394:52 12.33221sehMORBECQUE
630.3184OCCELLI Thierry48FRA1:42:141:42:404:52 12.33353vhLE DOULIEU
631.3107WAVRANT Marc58FRA1:41:181:42:404:52 12.33354vhQUESNOY SUR DEULE
632.5094DUBAELE Laurent35FRA1:41:481:42:404:52 12.33222sehLOMME
633.3723ROUZE Francois56FRA1:41:571:42:414:53 12.33355vhCROCHTE
634.4369PETILLON Hubert32BEL1:42:131:42:434:53 12.32223sehKORTRIJK
635.3424FHALI Christelle40FRA1:42:351:42:434:53 12.3219vfMONS EN BAROEUL
636.3542BOUDENOOT Julien34FRA1:42:341:42:444:53 12.32224sehWERVICQ SUD
637.4522DUMEZ Jean Claude44FRA1:42:181:42:454:53 12.32356vhPREMESQUES
638.3488PECKEU Jerome38FRA1:42:111:42:464:53 12.32225sehBETHUNE
639.4698LAURENT Jean Christophe35FRA1:42:111:42:474:53 12.32226sehLABOURSE
640.3976VULSTEKE Marc54BELLOKERHOEKERS1:42:481:42:494:53 12.31357vhPROVEN
641.4866DE BEER DE LAER Hadelin49BEL1:42:021:42:504:53 12.31358vhLOUVAIN LA NEUVE
642.3224CHRETIEN Christophe40BEL1:41:281:42:514:53 12.31359vhMOUSCRON
643.5031MASUREL Gus22FRA1:42:511:42:524:53 12.3119eshMARCQ EN BAROEUL
644.3651RYCKEBOSCH Kristof40BEL1:42:481:42:554:53 12.30360vhWERVIK
645.4675FERNEZ Pascal49FRA1:41:421:42:564:53 12.30361vhRAISMES
646.3179GAROT Benoit25FRA1:41:231:42:564:53 12.30227sehBUSIGNY
647.3427DE NOTARIS Geoffrey29FRA1:42:461:42:564:53 12.30228sehRACHES
648.3086BOUCHER Frederic46FRA1:42:531:42:574:53 12.30362vhMARCQ EN BAROEUL
649.3243AUZOU Jean Paul51FRASNCF1:42:571:43:004:53 12.29363vhDOURGES
650.4803BOTTIGLIONE Patrick39FRA1:43:001:43:014:53 12.29229sehLESQUIN
DNF: did not finish; DSQ: disqualified; Speed in km/h
06/02/2023 - 09:56 - 1689 Entries
ChronoRace - Electronic Timing SPRL
http://www.chronorace.be

Page 13 / 34  
La Course du Souvenir
Jogging Ploegsteert, 11/11/2010, BEL
21.1km - Result
21.097km 
Category
PosNrNameAgeNATTeamRealTimeTkmMoy.PlaceNameCity
651.3108LORMIER Jean Luc51FRA1:42:591:43:014:53 12.29364vhPHALEMPIN
652.3469BRUGE Bruno48FRA1:42:461:43:034:54 12.28365vhRACQUINGHEM
653.4011SCHRAEN Patrick51FRAJOG WORMHOUT1:42:391:43:054:54 12.28366vhWORMHOUT
654.5092DEPOORTERE Philippe43BEL1:42:201:43:064:54 12.28367vhHERINNES
655.3308LAMBELIN Gerard55FRAPHILIPPIDES TEM1:42:581:43:074:54 12.28368vhLOUVIL
656.3680CALON Christophe29FRA1:42:281:43:084:54 12.27230sehHEM
657.3291LEITAO Michael32FRA1:42:511:43:124:54 12.27231sehMOUVAUX
658.3290DESTOMBES Damien37FRA1:42:541:43:144:54 12.26232sehLINSELLES
659.3449PINTIAUX Eric34FRA1:42:591:43:174:54 12.26233sehLESQUIN
660.3567LEHOUCK Didier49BEL1:42:491:43:174:54 12.26369vhPLOEGSTEERT
661.3572BECUYWE Patrick42FRA1:42:411:43:184:54 12.26370vhTETEGHEM
662.5017DELRUE Benoit36FRA1:42:301:43:194:54 12.25234sehCROIX
663.3915JAWORSKA Philippe49FRAVELOURS1:43:041:43:214:54 12.25371vhFRELINGHIEN
664.3380BUFFAT Olivier55FRABANQUE SCALBERT1:42:101:43:234:54 12.24372vhCOUDEKERQUE
665.3957BOMBERA Daniel33FRAUS MARQUETT1:42:261:43:244:55 12.24235sehAUTHIEULE
666.4567STRAGIER Koenraad50BEL1:43:061:43:244:55 12.24373vhKORTRIJK HEULE
667.4455DECLERCQ Benoit34BEL1:43:191:43:274:55 12.24236sehMOUSCRON
668.3321LEFAUX Nicolas38FRABANQUE ACCORD1:43:021:43:284:55 12.24237sehMARQUETTE LES LILLE
669.4446WATTEL Eric51FRA1:42:471:43:304:55 12.23374vhLOISON SOUS LENS
670.3658CAILLAUX Sebastien29FRA1:43:281:43:324:55 12.23238sehARMENTIERES
671.3659EMPIS Dominique34FRA1:43:281:43:334:55 12.23239sehARMENTIERES
672.3186DELABROYE Stephane38FRA1:43:291:43:364:55 12.22240sehABLAIN SAINT NAZAIRE
673.4931GADEYNE Johan48BEL1:43:311:43:384:55 12.22375vhIEPER
674.4953PAING Alexandre21FRA1:41:351:43:404:55 12.2120eshBONDUES
675.3455BUCQUET Philippe46FRA1:42:431:43:404:55 12.21376vhLOMME
676.3262FOURNIER Guilain45FRA1:43:351:43:404:55 12.21377vhVERQUIGNEUL
677.5060FDELFAIRIERE Amelie30FRA1:42:461:43:404:55 12.2113sefLILLE (CP 1)
678.4476REMORY Yves43FRA1:43:381:43:424:55 12.21378vhLINSELLES
679.3843RENARD Xavier26FRACC ARMENTIERES1:43:121:43:444:55 12.20241sehLAMBERSART
680.3211DELFAUX Paul55FRAJA FRETIN1:43:281:43:454:56 12.20379vhWAMBRECHIES
681.4865DECEUNINCK Maxim19BEL1:43:441:43:454:56 12.206juhIZEGEM
682.3260PRUVOST Claude42FRA1:43:321:43:464:56 12.20380vhRACQUINGHEM
683.3261FPRUVOST Nathalie41BEL1:43:331:43:474:56 12.2020vf
684.4754DECOSTER Patrick50BEL1:43:461:43:484:56 12.20381vhIZEGEM
685.4736VANDEVOORDE Nico36BEL1:42:591:43:484:56 12.20242sehBAVIKHOVE
686.5012DAMBRIN Thierry46FRA1:43:301:43:504:56 12.19382vhMARCELCAVE
687.4682KANDEE Bouba45BEL1:42:501:43:544:56 12.18383vhROESELARE
688.5026ESPARSA Michel46FRA1:43:391:43:554:56 12.18384vhLILLE (CP 1)
689.3028POLLENTIER Bjorn31BEL1:43:551:43:554:56 12.18243sehVEURNE
690.4341TROLET Thomas20FRA1:43:441:43:564:56 12.1821eshABLAIN SAINT NAZAIRE
691.4561WYFFELS Lieven34BEL1:43:331:43:584:56 12.18244sehIEPER
692.3365DEBOEVER Francis45BELCERATEC1:42:541:43:594:56 12.17385vhDOTTIGNIES
693.3841DUQUENNE Damien37FRACC ARMENTIERES1:42:551:44:004:56 12.17245sehLA BASSEE
694.3837LABAEYE Antoine27FRA1:43:331:44:044:56 12.17246sehHOUPLINES
695.3573BLAVOET Eric47FRA1:43:271:44:054:56 12.16386vhLEFFRINCKOUCKE
696.3987BAILLEUL Cedric37FRA1:43:541:44:054:56 12.16247sehNIEPPE
697.3914VOETEN Fabien32FRAVELOURS1:43:421:44:054:57 12.16248sehCROIX
698.4793LEMOINE Benoit48FRA1:43:001:44:064:57 12.16387vhBAILLEUL
699.3344BALLY Olivier39FRA1:43:001:44:074:57 12.16249sehWAMBRECHIES
700.4511DELEERSNYDER Chris34BEL1:43:471:44:074:57 12.16250sehDEERLIJK
DNF: did not finish; DSQ: disqualified; Speed in km/h
06/02/2023 - 09:56 - 1689 Entries
ChronoRace - Electronic Timing SPRL
http://www.chronorace.be

Page 14 / 34  
La Course du Souvenir
Jogging Ploegsteert, 11/11/2010, BEL
21.1km - Result
21.097km 
Category
PosNrNameAgeNATTeamRealTimeTkmMoy.PlaceNameCity
701.3362DEBODE Karel37BELCERATEC1:43:181:44:114:57 12.15251sehKORTRIJK
702.3299BOURRE Philippe46FRA1:43:461:44:124:57 12.15388vhRAISMES
703.4804DUMORTIER Bertrand48FRA1:43:391:44:134:57 12.15389vhLINSELLES
704.3707LEIGNEL Jean-Francois46FRA1:43:381:44:144:57 12.15390vhMONS EN BAROEUL
705.4550LEBLANC Etienne15FRA1:43:091:44:154:57 12.143cahBAILLEUL SUR BERTHOULT
706.4528CAVEZ Benjamin31BEL1:44:091:44:164:57 12.14252sehPOTTES
707.4976CORDIER Jocelyn42FRA1:43:141:44:174:57 12.14391vhHEM
708.3304BEHAGUE Herve51FRAPHILIPPIDES TEM1:44:091:44:174:57 12.14392vhLOUVIL
709.4996TEMMERMAN Bernard48BEL1:44:021:44:184:57 12.14393vhWORTEGEM PETEGEM
710.4358DUJARDIN Frederic38FRA1:43:291:44:194:57 12.14253sehCHOCQUES
711.3142TIJTGAT Kris36BEL1:44:081:44:194:57 12.13254sehMARKE
712.4790BALLANT Denis47BEL1:43:381:44:204:57 12.13394vhBRUXELLES
713.3726DEQUIDT Thibaut28FRA1:43:561:44:204:57 12.13255sehLOMPRET
714.4948TIPRET Herve38FRA1:43:311:44:214:57 12.13256sehCHOCQUES
715.3737SIX Sebastien36FRA1:44:141:44:244:57 12.13257sehRONCQ
716.3924DESPLANQUES Martin28FRA1:44:161:44:254:57 12.12258sehRONCQ
717.3420AMAZ Laurent40FRACACB1:43:081:44:264:57 12.12395vhBRAY DUNES
718.4009QUEUGNET Gilles44FRAJOG WORMHOUT1:44:041:44:284:58 12.12396vhLEDRINGHEM
719.4569DEGRAEVE Hendrik46BEL1:44:121:44:294:58 12.12397vhIEPER
720.3287FDYBIONA Muriel46FRA1:43:571:44:294:58 12.1221vfPROVILLE
721.3315LEPERCQ Jeremy21BELAHVL1:44:071:44:304:58 12.1122eshCOMINES
722.3959DRUELLE Alexis24FRAUS MARQUETT1:43:391:44:314:58 12.11259sehQUESNOY SUR DEULE
723.4018BEUN Gerard49FRA1:43:371:44:344:58 12.11398vhLAMBERSART
724.4760MAES Frederic45FRA1:43:371:44:344:58 12.11399vhLAMBERSART
725.4751VERCRUYSSE David33BEL1:43:071:44:344:58 12.11260sehKORTRIJK
726.3522GAUCI Joel37FRA1:43:571:44:354:58 12.10261sehLILLE
727.4871GOOSSENS Martin44BEL1:43:541:44:354:58 12.10400vhROESALARE
728.3428LAROY Sebastien39FRA1:43:321:44:364:58 12.10262sehWORMHOUT
729.3936DEJONGHE Xavier38FRA1:44:111:44:374:58 12.10263sehSAINT ANDRE LEZ LILLE
730.3119DELCROIX Jean Louis48FRA1:43:101:44:384:58 12.10401vhMEURCHIN
731.3296VILLETTE Henri Pierre41FRA1:44:011:44:394:58 12.10402vhLAMBERSART
732.4718NOLLET Antoine32FRA1:44:011:44:394:58 12.10264sehLAMBERSART
733.4616VERDONCK Dries34BEL1:44:181:44:394:58 12.10265sehROESELARE
734.4968DEHAESE Georges55FRA1:44:241:44:404:58 12.09403vhGHYVELDE
735.3770SPINNEWYN Jean Francois43FRA1:44:281:44:414:58 12.09404vhBAILLEUL
736.3974FMOLCRETTE Marie Noelle36FRA1:44:331:44:424:58 12.0914sefFOUQUIERES LES BETHUNE
737.3496DE POURCQ Jo37BEL1:44:361:44:424:58 12.09266sehESTAIMPUIS
738.4705MORELLE David38BEL1:42:491:44:434:58 12.09267sehHERSEAUX
739.4623BERNARD Laurent39FRA1:43:261:44:434:58 12.09268sehANDRESY
740.3896DEMAIN Aurelien25FRA1:44:281:44:444:58 12.09269sehLILLE
741.4991OP DE BEECK Jurgen33BEL1:43:461:44:444:58 12.09270sehMERKSEM
742.3685CLAEYS Maxime35FRACOURIR AU MT. D1:44:351:44:474:58 12.08271sehLILLE
743.4816VERQUAIN Gregory35FRA1:43:571:44:474:59 12.08272sehWERVICQ SUD
744.3268FMIKOLAJCZAK Marcelline40FRA1:44:141:44:484:59 12.0822vfHOULLE
745.3613KOUYATE Abou33FRA1:44:101:44:514:59 12.07273sehLILLE
746.4541DESAEVER Jan40BEL1:44:461:44:524:59 12.07405vhST ANDRIES
747.4911FROSSEEL Christiane58BEL1:44:121:44:554:59 12.0723vfLEDEGEM
748.3912DESMOULIN Nicolas34FRAVELOURS1:44:131:44:564:59 12.06274sehBRUAY LA BUISSIERE
749.3731DEWYNTER Francois53FRA1:44:351:44:574:59 12.06406vhMOUVAUX
750.4472JOOS Christophe42FRABN JOGGING1:43:531:44:574:59 12.06407vhBAISIEUX
DNF: did not finish; DSQ: disqualified; Speed in km/h
06/02/2023 - 09:56 - 1689 Entries
ChronoRace - Electronic Timing SPRL
http://www.chronorace.be

Page 15 / 34  
La Course du Souvenir
Jogging Ploegsteert, 11/11/2010, BEL
21.1km - Result
21.097km 
Category
PosNrNameAgeNATTeamRealTimeTkmMoy.PlaceNameCity
751.3698FHAZE Nadege39FRAAC CHAPELLOIS1:44:301:45:004:59 12.0615sefCHAPELLE D ARMENTIERES
752.3506FKASPERCZYK Emilie27FRA1:44:351:45:014:59 12.0616sefMARCQ EN BAROEUL
753.3671FDIERYCKX Elise35FRAA.H.V.L1:44:491:45:024:59 12.0517sefBOUSBECQUE
754.3284FMONSOREZ Katia43BEL1:44:481:45:024:59 12.0524vf
755.4986OORTS Jorgen29BEL1:44:031:45:034:59 12.05275sehBOECHOUT
756.4979DUMONT Tomas31BEL1:44:591:45:034:59 12.05276sehOOIGEM
757.3313OSTYN Mathieu38FRA1:44:531:45:084:59 12.04277sehBOUSBECQUE
758.3785VANDENBROUCKE Kurd35BEL1:44:111:45:095:00 12.04278sehGELUWE
759.4943ROGER Ludovic37FRA1:44:311:45:095:00 12.04279sehLAMBERSART
760.3110BOURDEAU Stephane42FRA1:44:131:45:105:00 12.04408vhBACHY
761.3104BOUCLET Jean51FRA1:44:341:45:105:00 12.04409vhCYSOING
762.3923DESNOULEZ Jerome28FRA1:44:341:45:155:00 12.03280sehFRELINGHIEN
763.4638BEUSCART Quentin23BEL1:44:311:45:165:00 12.03281sehHERINNES
764.3180GAROT Matthias27FRA1:43:431:45:165:00 12.03282sehLILLE
765.3457FRATARD Didier58FRA1:44:161:45:175:00 12.02410vhHOUPLINES
766.4415BROUCKAERT Marc47BEL1:44:191:45:175:00 12.02411vhWONDELGEM
767.3419BILE Alain43FRACACB1:43:091:45:195:00 12.02412vhDUNKERQUE
768.4930DESPLECHIN Frederic42BEL1:45:131:45:195:00 12.02413vhMOUSCRON
769.5000LACZNY Xavier37FRA1:44:281:45:215:00 12.02283sehSTE MARIE CAPPEL
770.4772VANDEMOORTELE Ritchie35BEL1:45:131:45:255:00 12.01284sehREHINGELST
771.4024BECKER Bernard57FRACOUR.AU MONT1:43:181:45:255:00 12.01414vhMETEREN
772.3900JAOUEN Yohann33FRALESAFFRE1:44:191:45:295:00 12.00285sehTOURCOING
773.4699DELOBEL Fabrice37FRA1:45:161:45:315:01 12.00286sehPROVIN
774.4880MAILLE Vincent36FRA1:45:261:45:315:01 12.00287sehANNOEULLIN
775.4812BUSAIN Guy45BEL1:43:571:45:325:01 12.00415vhSTEENOKKERZEEL
776.3120DELOBEL Laurent43FRA1:44:461:45:355:01 11.99416vhCROIX
777.4829LAMOUR Olivier41FRA1:45:061:45:375:01 11.99417vhSECLIN
778.4667COZ Francois31FRA1:45:211:45:395:01 11.98288sehBAISIEUX
779.3675MENART Vincent50FRA1:45:231:45:425:01 11.98418vhSAILLY SUR LA LYS
780.3964COURBOIS Jean-Baptiste25FRA1:45:291:45:425:01 11.98289sehMARCQ EN BAROEUL
781.4469FACKEURE Remi30FRABN JOGGING1:44:541:45:435:01 11.98290sehLAMBERSART
782.3446JOOSTEN Jean Luc45FRACAMBRAI TRIATH1:44:581:45:455:01 11.97419vhIWUY
783.3266DENDOOVEN Philippe53FRA1:45:231:45:485:01 11.97420vhLEERS
784.3136NIVELLE Alexis32FRA1:44:351:45:485:01 11.97291sehLILLE
785.4739CAUWELIER Philippe35BEL1:44:501:45:495:01 11.96292sehGENT
786.3114HOLVOET Francis54BEL1:45:291:45:495:01 11.96421vhDEERLIJK
787.3849SPAGNOL Francois26FRA1:45:021:45:525:02 11.96293sehARMENTIERES
788.3866DELFORGE Leo17FRA1:44:091:45:525:02 11.964cahESSARS
789.3089NIVELLE Maxime34FRA1:44:391:45:535:02 11.96294sehHAUBOURDIN
790.5021DESCHINS Thierry48FRA1:45:021:45:545:02 11.95422vhENGLOS
791.3832DUQUENNE Christophe45FRAASOSS CPAM ARME1:45:301:45:575:02 11.95423vhLA GORGUE
792.3891LECOURT Antoine34BEL1:44:541:45:575:02 11.95295sehBAS WARNETON
793.3633PINOT Francois Xavier33FRA1:44:541:45:585:02 11.95296sehLILLE
794.3533SOISSON Franck39FRA1:45:061:45:595:02 11.94297sehESQUELBECQ
795.3989DEGRISE Mathieu31BEL1:45:241:45:595:02 11.94298seh
796.4496VERHOESTRAETE Jo42BEL1:45:481:46:005:02 11.94424vhWAREGEM
797.4574FWYDOOGHE Ann45BEL1:45:471:46:015:02 11.9425vfBAS WARNETON
798.4643CALLENS Xavier68BEL1:45:011:46:025:02 11.94425vhHULSTE
799.4373WILLEMS Jean Francois30FRA1:44:461:46:025:02 11.94299sehHAVERSKERQUE
800.5098FCABY Dominique43FRA1:45:361:46:035:02 11.9426vfWATTIGNIES
DNF: did not finish; DSQ: disqualified; Speed in km/h
06/02/2023 - 09:56 - 1689 Entries
ChronoRace - Electronic Timing SPRL
http://www.chronorace.be

Page 16 / 34  
La Course du Souvenir
Jogging Ploegsteert, 11/11/2010, BEL
21.1km - Result
21.097km 
Category
PosNrNameAgeNATTeamRealTimeTkmMoy.PlaceNameCity
801.3962FRABAU Laurence49FRA1:45:361:46:085:02 11.9327vfVILLENEUVE D ASCQ
802.3881CATOIRE Fabrice50FRA1:45:451:46:085:02 11.93426vhFRELINGHIEN
803.3632POTDEVIN Francois34FRA1:45:041:46:085:02 11.93300sehLILLE
804.3609MESTDAGH Benoit35FRA1:45:281:46:095:02 11.93301sehWERVICQ SUD
805.4057VANDENDORPE Luc48BEL1:45:231:46:115:02 11.92427vhLOUVAIN LA NEUVE
806.5055COTTREAU Jean-Daniel56FRA1:45:421:46:125:03 11.92428vhMARCHIENNES
807.3600BLAREAU Eric52BEL1:46:031:46:135:03 11.92429vhMAURAGE
808.3400GHEYSEN Patrick57BELBEISBROEKLOPERS1:45:291:46:135:03 11.92430vhBRUGGE
809.4612MAERTEN Joel53BEL1:44:521:46:145:03 11.92431vhIEPER
810.4529DANNIAU Johan54BEL1:45:261:46:155:03 11.91432vhHEUSDEN
811.3501LEMAIRE Florent32FRA1:45:481:46:175:03 11.91302sehMARCQ EN BAROEUL
812.4340DUBOIS Eric46FRA1:45:021:46:215:03 11.90433vhPERONNE
813.5011COULIER Etienne39FRA1:45:021:46:215:03 11.90303sehTOURCOING
814.3757CERVEAUX Sebastien41FRACHTI TRIATLILLE1:46:091:46:235:03 11.90434vhNIEPPE
815.3780GARCON Guillaume37FRA1:46:261:46:265:03 11.89304sehFLINES LES RACHES
816.4627DESCHAMPS Philippe43FRA1:44:401:46:285:03 11.89435vhVILLENEUVE D ASCQ
817.3401MATTON Ronny49BELBEISBROEKLOPERS1:45:461:46:295:03 11.89436vhST ANDRIES
818.3333DUBOIS Thierry42FRA1:45:541:46:295:03 11.89437vhEPERLECQUES
819.4756GELLYNCK Rik42BEL1:45:211:46:295:03 11.89438vh
820.3640BEDDELEEM Alain41BEL1:45:221:46:295:03 11.89439vhVLAMERTINGE
821.3470THELIER Ludovic41FRA1:45:381:46:305:03 11.89440vhBERTHEM
822.3569STEFANSKI Christophe40FRA1:45:301:46:355:04 11.88441vhLEFOREST
823.3568JOUVENAUX Jean Marc36FRA1:45:301:46:365:04 11.88305sehEVIN MALMAISON
824.3930BONAILLIE Franck43FRA1:44:511:46:385:04 11.87442vhLOUVIL
825.5066DIVE Nicolas27FRA1:45:471:46:405:04 11.87306sehEPERLECQUES
826.4575COUVREUR Martin52BEL1:46:171:46:405:04 11.87443vhKORTEMARK
827.5069GAUTHIER Geoffrey28FRA1:44:541:46:405:04 11.87307sehBRAY DUNES
828.4798LIGNIER Patrick55FRA1:44:121:46:415:04 11.87444vhHINGES
829.4505THIEUW Luc55BEL1:46:411:46:455:04 11.86445vhGISTEL
830.3387VIANNAY Joachim34FRABANQUE SCALBERT1:45:301:46:465:04 11.86308sehLILLE (CP 1)
831.3251LEMERRE Vincent36FRA1:45:281:46:495:04 11.85309sehSECLIN
831.3140POUCHAIN Jean Pierre45FRA1:46:041:46:495:04 11.85446vhDELETTES
833.5081PLANCKE Laurent50FRA1:46:011:46:495:04 11.85447vhLILLE (CP 1)
834.4927VAN CALENBERGHE Boris39BEL1:45:511:46:505:04 11.85310sehMARIAKERKE
835.4506TANGE Patrick52BEL1:46:451:46:505:04 11.85448vhOUDENBURG
836.4546DE BOEVER Johan53BEL1:46:001:46:505:04 11.85449vhMELLE
837.3320DELAHAYE Vincent42FRABANQUE ACCORD1:45:471:46:515:04 11.85450vhVILLENEUVE D ASCQ
838.3933DELMULLE Thierry46FRA1:46:401:46:535:04 11.84451vhRONCHIN
839.3461CONIAT Laurent46FRAFOULEES SAINGH.1:45:161:46:565:05 11.84452vhRONCHIN
840.3256PILLE Yvon56FRA1:46:311:46:565:05 11.84453vhBAUVIN
841.4722LEROY Benoit24FRA1:46:041:46:575:05 11.84311sehLILLE (CP 1)
842.4013CAPPELAERE Joel54FRAWORMHOUT1:46:341:47:005:05 11.83454vhWARHEM
843.4331VAN DE GEJUCHTE Paul57BEL1:46:101:47:005:05 11.83455vhWAREGEM
844.4981VERFAILLE Emmanuel32FRA1:46:151:47:025:05 11.83312sehMENEN
845.4945PAING Stephane47FRA1:45:521:47:035:05 11.83456vhBONDUES
846.4683VANHALST Tom20BEL1:46:041:47:075:05 11.8223eshBOEZINGE
847.4337VERHAMME Guido57BEL1:46:171:47:085:05 11.82457vhWAREGEM
848.4576KETELS Kris44BEL1:46:491:47:115:05 11.81458vhDIKSMUIDE
849.4577VANDEWAETERE Stefaan43BEL1:46:501:47:135:05 11.81459vhHANDZAME
850.4646FVANDAELE Kathy40BEL1:47:141:47:195:06 11.8028vfLAUWE MENEN
DNF: did not finish; DSQ: disqualified; Speed in km/h
06/02/2023 - 09:56 - 1689 Entries
ChronoRace - Electronic Timing SPRL
http://www.chronorace.be

Page 17 / 34  
La Course du Souvenir
Jogging Ploegsteert, 11/11/2010, BEL
21.1km - Result
21.097km 
Category
PosNrNameAgeNATTeamRealTimeTkmMoy.PlaceNameCity
851.3408SIMOENS Luc35BELBEISBROEKLOPERS1:46:361:47:205:06 11.79313sehGISTEL
852.3601DECRUYENAERE Jan46BEL1:46:531:47:225:06 11.79460vhPOELKAPELLE
853.4383JAUME Alain64BEL1:46:141:47:255:06 11.78461vhBRUXELLES
854.3590CORNIL Yann41FRA1:47:031:47:295:06 11.78462vhFRELINGHIEN
855.4349VANDOOREN Henk48BEL1:46:461:47:335:06 11.77463vhWEVELGEM
856.4937DESCHAMPS Axel44BEL1:47:271:47:335:06 11.77464vhMOUSCRON
857.4766COURCELLE Jan50BEL1:47:111:47:335:06 11.77465vhBEVEREN LEIE
858.3646VERSCHAEVE Jean Baptiste29BEL1:47:261:47:335:06 11.77314sehBAS WARNETON
859.3286DELEBARRE Michel59FRA1:47:211:47:345:06 11.77466vhWAVRIN
860.3115MUTELET Olivier41FRA1:46:451:47:355:06 11.77467vhSAILLY SUR LA LYS
861.4362LAENENS Francis59BEL1:47:251:47:365:06 11.77468vhWEMMEL
862.3662MESSEANT Jean-Gabriel52BEL1:47:211:47:375:07 11.76469vhRADINGHEM EN WEPPES
863.4987PATTYN Dries31BEL1:47:341:47:405:07 11.76315sehMENEN
864.4378FVAN DER GUCHT Fieke32BEL1:46:461:47:445:07 11.7518sefGENT
865.4338DESMADRYL Frank47BEL1:47:281:47:455:07 11.75470vhNIEUWKERKE
866.3882PALAUX Christophe46FRA1:45:211:47:455:07 11.75471vhFRELINGHIEN
867.4742FVANDEVOORDE Katleen50BEL1:47:071:47:475:07 11.7529vfROESELARE
868.3472LECOCQ Denis38FRA1:46:581:47:475:07 11.75316sehLORGIES
869.3122PAUCHET David30FRA1:46:591:47:475:07 11.74317sehMORBECQUE
870.3027FVERGOTE Ann37BEL1:47:461:47:475:07 11.7419sefLEKE
871.3728ANSEL Patrice46FRA1:47:311:47:525:07 11.74472vhPROVIN
872.3763DELIERRE Gerard54FRA1:46:591:47:535:07 11.73473vhSERVINS
873.4845PINEAU Frederic36BEL1:46:531:47:565:07 11.73318sehBRUXELLES
874.3337TIBERGHIEN Fabrice44FRA1:47:131:47:575:07 11.73474vhVERLINGHEM
875.4884POIRET Patrick49FRA1:47:291:48:005:08 11.72475vhCHEMY
876.4006DYCKE Laurent37FRAJOG WORMHOUT1:46:271:48:035:08 11.72319sehWORMHOUT
877.4512MEZIERES Yvonnick47BELRUNNING TEAM LA1:47:461:48:065:08 11.71476vhIZEGEM
878.4712GAND Maxence24FRA1:47:111:48:075:08 11.71320sehVILLENEUVE D ASCQ
879.3704CUVELLIER Remy25FRA1:47:471:48:095:08 11.70321sehLOMME
880.3703DELEDICQ Eric48FRA1:46:031:48:105:08 11.70477vhCAPIGEHM
881.4923BARBEZ Gerdy37BEL1:47:131:48:145:08 11.70322sehTIELT
882.3706NR 3706 XXX1:48:021:48:185:08 11.691xxx
883.3911MARECAUX David35FRAVELOURS1:47:261:48:195:09 11.69323sehQUESNOY SUR DEULE
884.3639WYBO Geert44BEL1:47:551:48:195:09 11.69478vhWESTVLETEREN
885.3817BATAILLE Bertrand40FRA1:48:091:48:215:09 11.68479vhLOMME
886.3667VILLANI Sylvain34FRATHALES1:47:311:48:215:09 11.68324sehMARCQ EN BAROEUL
887.3776VAN HEMELEN Chris54BEL1:47:461:48:235:09 11.68480vhVEURNE
888.4328FDEBRUYNE Brigitte41BEL1:47:581:48:245:09 11.6830vfVEURNE
889.3538SOETAERT Xavier41FRA1:47:221:48:255:09 11.68481vhHOUPLINES
890.3921LEROY Arnold29FRA1:48:191:48:255:09 11.68325sehHOUPLINES
891.3312FDEJONGHE Miek40BEL1:48:151:48:265:09 11.6731vfNIEUWMUNSTER
892.3871RAMON Maxime23FRA1:47:311:48:265:09 11.67326sehLINSELLES
893.4377PISVIN Jean Marie56BEL1:48:021:48:275:09 11.67482vhWINGENE
894.3249BERNARD Francis41FRA1:47:411:48:285:09 11.67483vhCAMBRAI
895.4363FDAENEKYNT Isabel42BEL1:48:231:48:285:09 11.6732vfSINT ANDRIES
896.4451THOREL Eric41FRA1:47:021:48:285:09 11.67484vhAUCHY LES MINES
897.3371VANDEPUTTE Filip33BELCERATEC1:47:321:48:285:09 11.67327sehHARELBEKE
898.4353TIBERGHIEN Steven31BEL1:48:171:48:305:09 11.67328sehZONNEBEKE
899.4547VEN Karl40BEL1:47:561:48:315:09 11.67485vhANTWERPEN
900.3664GARRIGUE Philippe38FRATHALES1:47:401:48:315:09 11.67329sehMARQUETTE LES LILLE
DNF: did not finish; DSQ: disqualified; Speed in km/h
06/02/2023 - 09:56 - 1689 Entries
ChronoRace - Electronic Timing SPRL
http://www.chronorace.be

Page 18 / 34  
La Course du Souvenir
Jogging Ploegsteert, 11/11/2010, BEL
21.1km - Result
21.097km 
Category
PosNrNameAgeNATTeamRealTimeTkmMoy.PlaceNameCity
901.4701FACQUEUR Francois30FRA1:47:101:48:335:09 11.66330sehFRELINGHIEN
902.3681GOURDAIN Franck36FRA1:47:311:48:355:09 11.66331sehDEULEMONT
903.3599FLAMENT Eddy47BEL1:48:251:48:365:09 11.66486vhHAVRE
904.4631LECLERCQ Emilien24BEL1:47:451:48:405:10 11.65332seh
905.4531LEMY Franck36BEL1:48:081:48:425:10 11.65333sehANDERLECHT
906.3128LANNOO Carl46BELTC LOGAN1:48:101:48:465:10 11.64487vhVARSENARE
907.3848LENIEL Thomas26FRA1:47:571:48:475:10 11.64334sehAVESNELLES
908.3435MONTEUUIS Dominique52FRAALLUMINIUM DUNK1:48:101:48:475:10 11.64488vhDUNKERQUE
909.3129DE WILDE Cederic26BELTC LOGAN1:48:111:48:475:10 11.64335sehDE HAAN
910.3918DIONIS Luc45FRA1:47:521:48:485:10 11.64489vhMOUVAUX
911.3774FWANTE Christine51BEL1:48:191:48:495:10 11.6333vfZULTE
912.4343BRASSAERT Andre64BEL1:48:231:48:505:10 11.63490vhKORTEMARK
913.4396FJAECQUES Hilde40BEL1:48:481:48:525:10 11.6334vfGISTEL
914.3750MERTENS Daniel61BEL1:48:011:48:535:10 11.63491vhDEINZE
915.3789ROCHAT Gerald55FRA1:47:271:48:545:10 11.62492vhLOUVIGNIES QUESNOY
916.3739HOUDRY Nicolas42FRA1:48:341:48:555:10 11.62493vhBOIS GRENIER
917.4600FANNYS Katrien47BEL1:48:391:48:565:10 11.6235vfGISTEL
918.4779VERSCHAEVE Dominique43BEL1:47:471:48:585:10 11.62494vhWEVELGEM
919.3237FDENDOOVEN Annick40BEL1:47:511:48:585:10 11.6236vf
920.3827AGGOUNE Khairddine53FRA1:48:501:49:015:10 11.61495vhEVIN MALMAISON
921.3636HOCHART Mickaêl30FRA1:48:571:49:025:11 11.61336sehAUCHY LES MINES
922.4935LOGIER Thierry46BEL1:47:411:49:025:11 11.61496vhDIKSMUIDE
923.4901DUSSART Romain31FRA1:48:181:49:035:11 11.61337sehHELLEMMES
924.3840BERTIN Vincent34FRACC ARMENTIERES1:47:591:49:045:11 11.61338sehHAZEBROUCK
925.3839TRIQUET Christophe36FRACC ARMENTIERES1:48:001:49:045:11 11.61339sehHAZEBROUCK
926.5106GEERAERT Sebastiiaan24BEL1:47:371:49:055:11 11.61340sehLAUWE
927.3880CATTEAU Andre64FRA1:47:301:49:055:11 11.60497vhFRELINGHIEN
928.5025DUJARDIN Nicolas30FRA1:48:411:49:095:11 11.60341sehFACHES THUSMENIL
929.4833BONTE Philippe53BEL1:49:061:49:105:11 11.60498vhBRUXELLES
930.5033MASUREL Philippe60FRA1:49:031:49:105:11 11.60499vhMARCQ EN BAROEUL
931.3867DUHAMEL Nicolas39FRA1:48:441:49:135:11 11.59342sehFACHES THUMESNIL
932.4622MAHIEU Ignaas36BEL1:47:491:49:145:11 11.59343sehKORTRIJK
933.3411SOLHEID Herve51FRAASPTT DUNKERQUE1:47:471:49:155:11 11.59500vhBETHUNE
934.4629MOTTE David54FRA1:47:281:49:175:11 11.58501vhHEM
935.4818FNEVEJAN Pascale42BEL1:48:161:49:185:11 11.5837vfPOPERINGE
936.4025DEROO Laurent36FRA1:48:331:49:185:11 11.58344sehVERLINGHEM
937.4513FCORDIER Pauline45FRA1:48:241:49:205:11 11.5838vfVILLENEUVE D ASCQ
938.4027DENDAUW Johann21FRA1:49:211:49:215:11 11.5824eshARMENTIERES
939.3490VERQUIN Stephane42FRA1:48:591:49:225:12 11.57502vhLINSELLES
940.4426BENSOUDA Naoufal44FRA1:48:541:49:265:12 11.57503vhMARCQ EN BAROEUL
941.4849MAGERMAN Hans53BEL1:48:401:49:275:12 11.57504vhZWEVEGEM
942.3653TREDEZ Eric40FRA1:48:591:49:305:12 11.56505vhERQUINGHEM SUR LYS
943.3295SIRTAINE Jean Loup54FRA1:49:011:49:315:12 11.56506vhBAILLEUL
944.3744HOUCKE Philippe52FRA1:48:441:49:325:12 11.56507vhFLEURBAIX
945.4599FNYS Katrien47BEL1:49:081:49:325:12 11.5639vfDEERLIJK
946.4368VANCOMPERNOLLE Koen45BEL1:49:051:49:335:12 11.56508vhTORHOUT
947.3476FBOUCHEZ Agnes50FRA1:49:091:49:345:12 11.5540vfLILLE (CP 1)
948.4954WERSTERLIN Xavier29FRA1:49:221:49:355:12 11.55345sehDUNKERQUE
949.4825FBAUWENS Dana22BEL1:48:521:49:365:12 11.551esfBLANKENBERGE
950.4422LEVRAU Patrick34BEL1:48:111:49:405:12 11.54346sehWAREGEM
DNF: did not finish; DSQ: disqualified; Speed in km/h
06/02/2023 - 09:56 - 1689 Entries
ChronoRace - Electronic Timing SPRL
http://www.chronorace.be

Page 19 / 34  
La Course du Souvenir
Jogging Ploegsteert, 11/11/2010, BEL
21.1km - Result
21.097km 
Category
PosNrNameAgeNATTeamRealTimeTkmMoy.PlaceNameCity
951.3874ROY Rodolphe34FRA1:48:271:49:405:12 11.54347sehEMMERIN
952.5003FBILLIET Carine46BEL1:48:241:49:405:12 11.5441vfTIELT
953.3285PERSYN Stephane49FRA1:48:361:49:425:12 11.54509vhOFFEKERQUE
954.3399FFRANCOIS Evelyne47BELBEISBROEKLOPERS1:48:061:49:445:13 11.5442vfBLANKENBERGHE
955.4315CARDON Alain49BEL1:48:241:49:455:13 11.53510vhMOUSCRON
956.4314MAES Stephane50BEL1:48:261:49:455:13 11.53511vhMOUSCRON
957.3334COURQUIN Bruno49FRA1:49:291:49:465:13 11.53512vhMONS EN BAROUEL
958.4421VAN RENSBERGEN Walter69BEL1:49:301:49:465:13 11.53513vhBRUXELLES
959.3701DEPERSIN Daniel49FRAAC CHAPELLOIS1:48:411:49:495:13 11.53514vhCHAPELLE D ARMENTIERES
960.4481DEVAUX Sebastien26FRA1:48:521:49:525:13 11.52348sehLA MADELEINE
961.4899LENAERTS Carl66BEL1:49:101:49:535:13 11.52515vhLEDEGEM
962.3459BRICOUT Daniel62FRAFOULEES SAINGH.1:48:591:49:535:13 11.52516vhLA BASSEE
963.4900BERTOUT Pierre31FRA1:49:091:49:555:13 11.52349sehLOOS
964.5054COBBAERT Johan42BEL1:49:151:49:565:13 11.51517vhGENT
965.4632TANGHE Patrick54BEL1:49:281:49:595:13 11.51518vhGISTEL
966.3379BAUDELET Gerard51FRA1:49:231:49:595:13 11.51519vhDUNKERQUE
967.3586LIBERT Pierre Marie53FRAUS LEFFRINCKOUC1:49:241:50:005:13 11.51520vhDUNKERQUE
968.3430LIBERT Frederic50FRA1:49:251:50:005:13 11.51521vhDUNKERQUE (CP 3)
969.4960VERCAENST Franck35FRA1:49:481:50:015:13 11.51350sehHALLUIN
970.3562VERBEKE Gert42BEL1:49:471:50:025:13 11.50522vhGELUWE
971.5084RENAUD Florent21FRA1:49:401:50:035:13 11.5025eshOSNY
972.5034MASUREL Theo15FRA1:49:151:50:055:14 11.505cahMARCQ EN BAROEUL
973.5105FBONNIER Hilde38BEL1:49:091:50:085:14 11.5020sefHOUTHULST
974.3074HAU Eric49FRA1:49:331:50:105:14 11.49523vhSAINT POL SUR MER
975.3806LOSFELD Laurent43BEL1:50:051:50:115:14 11.49524vhHERSEAUX
976.4593WESLINCK Pascal45FRA1:49:491:50:155:14 11.48525vhBETHUNE
977.3825DELCOURT Jean Philippe47FRA1:50:171:50:175:14 11.48526vhFLEURBAIX
978.3838SANTRAINE Benoit41BELCC ARMENTIERES1:49:461:50:185:14 11.48527vhPLOEGSTEERT
979.4922FVANDERYSE Leen48BEL1:49:331:50:205:14 11.4743vfHOOGLEDE
980.4484FGADEYNE Laura20BEL1:49:561:50:215:14 11.472esf
981.4690DELHONTE Philippe52FRA1:50:021:50:235:14 11.47528vhRONCQ
982.4924BRAYE Toon26FRA1:48:141:50:255:14 11.47351sehRUMBEKE
983.3316POCHCIOL David37BELAHVL1:50:051:50:285:15 11.46352sehCOMINES
984.5020DERENSY Christophe39FRA1:49:561:50:285:15 11.46353sehLAVANTIE
985.4594RIGA Frederic42FRA1:50:021:50:285:15 11.46529vhGENECH
986.3510CHARLET Francois50FRA1:50:111:50:295:15 11.46530vhHERLIES
987.4680BRIM James25BEL1:49:181:50:305:15 11.46354seh
988.3525LEFEBVRE Andre56FRA1:48:591:50:325:15 11.45531vhST SYLVESTRE CAPPEL
989.4015JESSENNE Gregory35FRA1:49:211:50:355:15 11.45355sehLILLE
990.5004BODESCOT Olivier37FRA1:50:041:50:415:15 11.44356sehHINGES
991.5052CELEJ Benjamin33FRA1:50:051:50:425:15 11.44357sehMORBECQUE
992.3884FMARECHAL Dalila51FRA1:50:261:50:445:15 11.4344vfFRELINGHIEN
993.3267MAGALHAES Jean Carlos34FRA1:50:181:50:465:16 11.43358sehMARQUETTE LES LILLE
994.3604RYCKEBOER Stephan31BEL1:50:241:50:485:16 11.43359sehGENT
995.3099PLANQUE Jean Michel45FRA1:50:261:50:535:16 11.42532vhAUCHY LES MINES
996.3530DEFRANCE Emmanuel42FRA1:48:291:50:545:16 11.41533vhGONNEHEM
997.3977MORDACQ Pascal37FRA1:49:561:50:575:16 11.41360sehHALLUIN
998.4860VANNESTE Buny53BEL1:49:281:50:575:16 11.41534vhGULLEGEM
999.4950HAUSPIE Geoffrey26FRA1:50:441:50:595:16 11.41361sehBERGUES
1000.3631LAGACHE Frederique34FRA1:49:561:51:005:16 11.41362sehLOOS
DNF: did not finish; DSQ: disqualified; Speed in km/h
06/02/2023 - 09:56 - 1689 Entries
ChronoRace - Electronic Timing SPRL
http://www.chronorace.be

Page 20 / 34  
La Course du Souvenir
Jogging Ploegsteert, 11/11/2010, BEL
21.1km - Result
21.097km 
Category
PosNrNameAgeNATTeamRealTimeTkmMoy.PlaceNameCity
1001.5028HAZEBROUCK Pascal34FRA1:50:091:51:005:16 11.40363sehWERVICQ SUD
1002.3367DUHOT Romain28FRACERATEC1:50:051:51:005:16 11.40364sehSTEENWERCK
1003.3021FLEGEIN Stephanie35BEL1:51:031:51:045:16 11.4021sefVEURNE
1004.3097TRACHEZ Franck37FRA1:50:401:51:085:17 11.39365sehLAVENTIE
1005.3682TOP Emmanuel35FRA1:50:061:51:105:17 11.39366sehDEULEMONT
1006.3127AELTER Xavier41BELTC LOGAN1:50:361:51:125:17 11.38535vhBRUGGE
1007.5076MARTIN Michel51FRA1:50:181:51:125:17 11.38536vhDUNKERQUE (CP 3)
1008.3392MELIQUE Claude35FRA1:50:581:51:185:17 11.37367sehOXELAERE
1009.3834BRUNI Jean Christophe39FRACPAM ARMENTIERE1:51:051:51:215:17 11.37368sehIZEL LES EQUERCHIN
1010.3141DAVID Phil46FRA1:50:281:51:225:17 11.37537vhCAPPELLE EN PEVELE
1011.4470DEPLANQUE TABARY Anthony40FRABN JOGGING1:50:211:51:235:17 11.37538vhIZEL LES EQUERCHIN
1012.4657CHARLIER Baudouin59BEL1:51:051:51:255:17 11.36539vh
1013.3580DEVYS Pascal48FRA1:50:491:51:265:17 11.36540vhLEFFRINCKOUCKE
1014.5005BOIZART Fernand54FRA1:50:551:51:265:17 11.36541vhERCHIN
1014.4413DE MAERTELAER Laurent37BEL1:51:141:51:265:17 11.36369seh
1016.4007NORBERT Olivier37FRAJOG WORMHOUT1:51:091:51:275:17 11.36370sehWORMHOUT
1017.3999HIE Pierre-Hector36FRA1:50:131:51:285:17 11.36371sehROUBAIX
1018.5085ROBIN Olivier47FRA1:50:131:51:285:17 11.36542vhMARCQ EN BAROEUL
1019.4587FARINEAUX Jean59FRA1:50:121:51:335:18 11.35543vhBAILLEUL
1020.3782POOT Martin52BEL1:50:321:51:355:18 11.35544vhGELUWE
1021.3942DECLERCK Gonzague47FRA1:51:171:51:355:18 11.35545vhAIRE SUR LA LYS
1022.3943FDECLERCK Veronique47FRA1:51:171:51:355:18 11.3445vfAIRE SUR LA LYS
1023.3913BOLPAIRE Jerome38FRAVELOURS1:51:301:51:385:18 11.34372sehBAILLEUL
1024.4651VAN DER PERRE Frederik34BEL1:50:211:51:395:18 11.34373sehOUDENBURG
1025.3949FAVIER Frederic37FRA1:51:211:51:405:18 11.34374sehAIRE SUR LA LYS
1026.3489D HOORE Jean Pierre46FRA1:51:171:51:405:18 11.34546vhLINSELLES
1027.4495DAVID Dave30BEL1:50:341:51:475:18 11.32375sehBISSEGEM
1028.4730WULBRECHT Bart53BEL1:50:331:51:495:18 11.32547vhMOORSELE WEVEL.
1029.3695LHERMITTE Joel59FRAAC CHAPELLOIS1:50:431:51:525:19 11.32548vhPREMESQUES
1030.3096CALLENS Bertrand57FRA1:51:541:51:545:19 11.31549vhTOURCOING
1031.4966CATTEAU Samuel26FRA1:50:361:51:555:19 11.31376sehFRELINGHIEN
1032.4671SMITH Ted239BEL1:49:401:51:575:19 11.31377sehWATERLOO
1032.3377VIANE Stijn20BEL1:51:491:51:575:19 11.3126eshKOKSIJDE
1034.3581DUPONT Herve52FRA1:51:201:51:575:19 11.31550vhCOUDEKERQUE BRANCHE
1035.3809RYSSAERT Jan59BEL1:51:401:51:595:19 11.30551vhHARELBEKE
1036.3425WASSELEZ Christophe44FRA1:50:571:52:005:19 11.30552vhMARQUETTE LES LILLE
1037.3991DERAMOUDT Jurgen29BELDJ DERA1:51:081:52:005:19 11.30378sehDIKKEBUS
1038.4719DAILLY Laurent42FRA1:51:121:52:025:19 11.30553vhHEM
1039.4021PRIEM Andre56BEL1:51:191:52:045:19 11.30554vhCOMINES
1040.4592ROUSSEL Thierry43FRA1:51:551:52:055:19 11.29555vhLILLERS
1041.5024DOLPHEN Stephane35FRA1:52:021:52:085:19 11.29379sehBAILLEUL
1042.3762NOE Philippe45FRA1:51:031:52:105:19 11.29556vhDUNKERQUE (CP 2)
1043.3486FMICHAUD Annick41FRA1:51:031:52:105:19 11.2946vfCOUDEKERQUE BRANCHE
1044.3258FLAVIGNY Alain48FRA1:51:241:52:115:20 11.28557vhRONCHIN
1045.4668FENET Daniel62FRA1:51:211:52:115:20 11.28558vhPESSAC
1046.3811HERNAVAL François38FRA1:51:161:52:125:20 11.28380sehBOIS GRENIER
1047.3549LIENART Stephane44FRA1:51:471:52:155:20 11.28559vhBAILLEUL
1048.4525FNOTTEAU Marie Paule40FRA1:51:361:52:165:20 11.2847vfARRAS
1049.4336PETY Olivier35FRA1:50:531:52:165:20 11.28381sehAUCHY LES ORCHIES
1050.4848DEHAERNE Norbert63BEL1:52:141:52:235:20 11.26560vhIEPER
DNF: did not finish; DSQ: disqualified; Speed in km/h
06/02/2023 - 09:56 - 1689 Entries
ChronoRace - Electronic Timing SPRL
http://www.chronorace.be

Page 21 / 34  
La Course du Souvenir
Jogging Ploegsteert, 11/11/2010, BEL
21.1km - Result
21.097km 
Category
PosNrNameAgeNATTeamRealTimeTkmMoy.PlaceNameCity
1050.4633STAELENS Francky44BEL1:51:441:52:235:20 11.26560vhTIEGEM
1052.3244BLANCHART Dominique44FRASNCF1:50:071:52:235:20 11.26562vhNOYELLES LES SECLIN
1053.4404LONGEPEE Philippe49FRA1:52:101:52:245:20 11.26563vhWATTRELOS
1054.4485FISEBAERT Anais38BEL1:52:121:52:245:20 11.2622sefWERVIK
1055.4933DEWAELE Paul61BEL1:51:551:52:245:20 11.26564vhWAREGEM
1056.3868FDUHAMEL Stephanie36FRA1:51:121:52:255:20 11.2623sefFACHES THUSMENIL
1057.3720CLAERHOUT Filip56BEL1:50:041:52:255:20 11.26565vhHARELBEKE
1058.3527GADENNE Bruno55FRA1:51:281:52:265:20 11.26566vhERQUINGHEM SUR LYS
1059.3955MARSEILLE Jean Marc50FRA1:50:401:52:265:20 11.26567vhROQUETOIRE
1060.4674LAGACHE Henri58FRA1:51:111:52:265:20 11.26568vhSAINT SAULVE
1061.3856NEUVILLE Guy45FRA1:52:081:52:265:20 11.26569vhCOMINES
1062.4031MARSEILLE Philippe51FRA1:50:381:52:265:20 11.26570vhILLIES
1063.3105FDEVANNE KOUCHTIR Nezha43FRA1:51:171:52:275:20 11.2648vfSTEENWERCK
1064.4821FIEUWS Peter47BEL1:50:051:52:295:20 11.25571vhMENEN
1065.3938CASIER Marie-Dominique46FRA1:52:171:52:305:20 11.25572vhHALLUIN
1066.4479FGHESQUIERE Cecile34FRA1:51:211:52:315:20 11.2524sefCARVIN
1067.4474GHESQUIERE Julien33FRA1:50:521:52:315:20 11.25382sehCARVIN
1068.4677DUSSART Patrick46FRA1:51:181:52:325:21 11.25573vhMARLY
1069.3453MATHIEU Gerard60FRA1:51:191:52:335:21 11.25574vhMARCQ EN BAROEUL
1070.4732OSSOWSKI Marc47FRA1:51:181:52:335:21 11.25575vhVIEUX CONDE
1071.4005FDEBRIL Sylvie50FRAJOG WORMHOUT1:50:591:52:345:21 11.2549vfWORMHOUT
1071.4676FERNEZ Jean Marc53FRA1:51:171:52:345:21 11.25576vhRAISMES
1073.3212GIRODEAU Roger62FRAJA FRETIN1:52:201:52:345:21 11.25577vhHALLUIN
1074.3456FORZY Pierre53FRA1:51:201:52:375:21 11.24578vhLILLE
1075.4800BLOMME Wim33BEL1:51:121:52:385:21 11.24383sehIZEGEM
1076.3862DOAT David26FRA1:51:461:52:415:21 11.24384sehLILLE (CP 1)
1077.4827FPARRET Mieke33BEL1:51:401:52:415:21 11.2325sefPOPERINGE
1078.3857FNEUVILLE Ghislaine41FRACOURIR A COMINE1:52:241:52:415:21 11.2350vfCOMINES
1079.3354GRYSON Philippe48BEL1:51:401:52:415:21 11.23579vhPOPERINGE
1080.3521POULLIER Vincent33FRA1:51:591:52:435:21 11.23385sehWAVRIN
1081.4917MALENGIER Geert45BEL1:51:281:52:475:21 11.22580vhMOORSLEDE
1082.4318LERMECHIN Hugues32FRA1:52:231:52:485:21 11.22386sehMONTREUIL
1083.4508DEWULF Hendrik53BEL1:51:261:52:485:21 11.22581vhBOEZINGE
1084.4780DE BROUWERE Adriaan35BEL1:52:061:52:505:21 11.22387sehBRUGGE
1085.3235DROUFFE Mathieu43FRA1:51:581:52:515:21 11.22582vhWILLEMS
1086.3170CARLY Alain47FRA1:51:591:52:515:21 11.22583vhVILLENEUVE D'ASCQ
1087.3248MORIN Patrick52FRA1:52:041:52:525:21 11.22584vhCAMBRAI
1088.4700FMLYNCZAK Nathalie41BEL1:52:441:52:535:21 11.2251vfBLATON
1089.3619LEBORGNE Yannick32FRA1:51:461:52:535:22 11.21388sehSAINT- ANDRE
1090.3583FHERMANT Catherine52FRA1:52:171:52:535:22 11.2152vfLEFFRINCKOUCKE
1091.3130DEDECKERE Dieter35BELTC LOGAN1:52:051:52:535:22 11.21389sehBRUGGE
1092.3627TALBOT Michel43FRA1:51:491:52:555:22 11.21585vhLA MADELEINE
1093.4998CORNU Gaetan44FRA1:51:421:52:565:22 11.21586vhKAIN
1094.4997FVAN MALEGHEM Ariane47FRA1:51:431:52:565:22 11.2153vfKAIN
1095.4714CASTEL Francois37FRA1:52:001:52:565:22 11.21390sehTOURCOING
1096.4715HARDEMAN Guy37FRA1:52:381:52:575:22 11.21391sehWATTRELOS
1097.4606PYCK Katrien39BEL1:52:491:53:005:22 11.20392sehVLAMERTINGE
1098.3278MISSIAEN Andre58BEL1:52:241:53:035:22 11.20587vhWAREGEM
1099.4367FDENIE Marijke38BEL1:52:251:53:035:22 11.2026sefVICHTE
1100.4640LABIS Joseph53BEL1:52:251:53:035:22 11.20588vhANZEGEM
DNF: did not finish; DSQ: disqualified; Speed in km/h
06/02/2023 - 09:56 - 1689 Entries
ChronoRace - Electronic Timing SPRL
http://www.chronorace.be

Page 22 / 34  
La Course du Souvenir
Jogging Ploegsteert, 11/11/2010, BEL
21.1km - Result
21.097km 
Category
PosNrNameAgeNATTeamRealTimeTkmMoy.PlaceNameCity
1101.3947FFERNSNER Veronique48FRA1:52:451:53:035:22 11.2054vfGUARBECQUE
1102.4831FDESCHRIJVERE Jeannine44BEL1:52:261:53:055:22 11.1955vfOOSTENDE
1103.4398FIEUWS Stijn44BEL1:51:591:53:065:22 11.19589vhKUURNE
1104.4716GALLAND Ludovic42FRA1:51:501:53:075:22 11.19590vhWATTRELOS
1105.4414BOYDENS Wim32BEL1:52:121:53:095:22 11.19393sehOOSTKAMP
1106.4817DELOBELLE Dany51BEL1:52:571:53:095:22 11.19591vh
1107.5016DECLERCQ Christophe45FRA1:52:321:53:135:22 11.18592vhSAINGHIN EN WEPPES
1108.3940PILOT Jerome39FRA1:51:521:53:135:22 11.18394sehAIRE SUR LA LYS
1109.3463FOUTERET Philippe44FRAFOULEES SAINGH.1:52:341:53:135:22 11.18593vhWAVRIN
1110.4789NAESSENS Niko44BEL1:52:121:53:145:23 11.18594vhPOPERINGE
1111.3464FLEGRAND Sylvie50FRAFOULEES SAINGH.1:52:351:53:165:23 11.1856vfWAVRIN
1112.3995FSCHELPE Cily43BELDAPALO1:51:441:53:245:23 11.1657vfMOORSLEDE
1113.3684CARDINAL Ignace61FRA1:53:241:53:275:23 11.16595vhBAILLEUL
1114.3113CUVILLIER Philippe48FRA1:53:261:53:285:23 11.16596vhGRENAY
1115.4891HEQUETTE Sebastien28FRA1:53:261:53:285:23 11.16395sehVERTON
1116.3418OBERT Frederic44FRACACB1:53:241:53:295:23 11.16597vhCOUDEKERQUE BRANCHE
1117.3263FWAREMBOURG DEGAIGNE Dominique59FRA1:52:541:53:295:23 11.1558vfDUNKERQUE (CP 2)
1118.3764SOUDAIN Vincent46FRAKIKOUROU1:53:041:53:335:23 11.15598vhSANTES
1119.3070SCHRODER Francois58FRA1:53:121:53:335:23 11.15599vhLIEVIN
1120.4826VULSTEKE Pieter22BEL1:53:411:53:415:24 11.1327eshPROVEN
1121.3903VANDAELE Kristof36BEL1:53:111:53:435:24 11.13396sehHOUTHULST
1122.4634DE RUYTER Stefan41BEL1:53:331:53:495:24 11.12600vhTORHOUT
1123.4408WALRAVENS Pierre25BEL1:52:321:53:505:24 11.12397sehDEUX ACREN
1124.3026FDEGRU Lieve42BEL1:53:501:53:515:24 11.1259vfWOUMEN
1125.5013DAMBROSIO Gregory36FRA1:52:501:53:525:24 11.12398sehDUNKERQUE (CP 2)
1126.4765DEMUYSERE Jona33BEL1:53:271:53:545:24 11.11399sehGELUWE
1127.4801DESPREZ Patrick57FRA1:53:481:53:555:24 11.11601vhGIVENCHY EN GOHELLE
1128.4815FDESPREZ Isabelle50FRA1:53:231:53:555:24 11.1160vfGIVENCHY EN GOHELLE
1129.3781SARELS Yves55FRA1:53:361:53:565:25 11.11602vhMARCQ EN BAROEUL
1130.4427ROUSSEL Charles42FRA1:53:131:53:595:25 11.11603vhHAZEBROUCK
1131.4608COUDEVILLE Jan47BEL1:53:291:54:035:25 11.10604vhSINT KRUIS
1132.3563D HONT Frederick33FRA1:54:021:54:075:25 11.09400sehTOURCOING
1133.3705LELEU Anthony39BEL1:53:491:54:085:25 11.09401sehPLOEGSTEERT
1134.3364DEBOEVER Bernard41FRACERATEC1:53:031:54:095:25 11.09605vhKAIN
1135.3801VIGNIER Alain53FRA1:53:331:54:115:25 11.09606vhLILLE
1136.3541COSYNS Loic33FRA1:53:101:54:135:25 11.08402sehHEM
1137.3372VERHOEYE Martial35BELCERATEC1:53:131:54:155:25 11.08403sehWARNETON
1138.3158VANDENDAELLE Thierry /Hem46FRALA MONDIALE1:52:501:54:165:25 11.08607vhHEM
1139.5061VERDIN Anthony36FRA1:54:171:54:185:26 11.08404sehANDRES
1140.3082VRANCKEN Francois37FRA1:54:071:54:195:26 11.07405sehDOUVRIN
1141.3715DUBUS Daniel61FRA1:53:091:54:205:26 11.07608vhPERENCHIES
1142.4467LIETAERT Johan48BELAC OUDENBURG1:54:131:54:235:26 11.07609vhKUURNE
1143.4807ROCCA Adrien24FRA1:53:321:54:245:26 11.07406sehLILLE (CP 1)
1144.4687VANDAMME Laurens21BEL1:53:211:54:245:26 11.0728eshDIKSMUIDE
1145.3926LHERMITTE Guillaume36FRA1:53:081:54:255:26 11.06407sehBOIS GRENIER
1146.3204VRIDAUD Stephane38FRA1:53:201:54:275:26 11.06408sehBREUIL LE VERT
1147.3484DUMORTIER Damien40FRA1:53:511:54:275:26 11.06610vhLINSELLES
1148.5071FLEFEBVRE Delphine29FRA1:54:051:54:275:26 11.0627sefSAINT OMER
1149.4648JACQUES Hans45BEL1:54:021:54:295:26 11.06611vhTORHOUT
1150.3716FDUBUS Melissa28FRAOMS LOMME1:53:231:54:375:26 11.0428sefPERENCHIES
DNF: did not finish; DSQ: disqualified; Speed in km/h
06/02/2023 - 09:56 - 1689 Entries
ChronoRace - Electronic Timing SPRL
http://www.chronorace.be

Page 23 / 34  
La Course du Souvenir
Jogging Ploegsteert, 11/11/2010, BEL
21.1km - Result
21.097km 
Category
PosNrNameAgeNATTeamRealTimeTkmMoy.PlaceNameCity
1151.4303BABIN Philippe42FRA1:54:141:54:425:27 11.04612vhLINSELLES
1152.3191GENAT Norbert44FRA1:53:571:54:435:27 11.03613vhMERRIS
1153.4727FDUPAS Olga44FRA1:53:331:54:445:27 11.0361vfMARCQ EN OSTREVENT
1154.3270VAN LOO Hugo55BEL1:54:181:54:455:27 11.03614vhST ANDRIES
1155.3948FHANNOTEL Nathalie39FRA1:53:271:54:465:27 11.0329sefENGUINEGATTE
1156.4033RAMERY Albert52FRA1:54:031:54:465:27 11.03615vhLA CHAPELLE D'ARMENTIERES
1157.3241FMARVELLIE Myriam45BEL1:53:401:54:475:27 11.0362vfKOKSYDE
1158.3240DUYVER Geert50BEL1:53:401:54:475:27 11.03616vhOOSTDUINKERKE
1159.3906BOULOGNE Franck34FRAVELOURS1:54:291:54:505:27 11.02409sehBAILLEUL
1160.3907DRIEU Nicolas30FRAVELOURS1:54:291:54:505:27 11.02410sehBAILLEUL
1161.5082PLICHARD Olivier41FRA1:53:371:54:515:27 11.02617vhHAILLICOURT
1162.3528VERHECKEN Pascal40FRA1:54:441:54:525:27 11.02618vhHENIN BEAUMONT
1163.4797RAMON Vivien24FRA1:53:551:54:555:27 11.02411sehSTEENWERCK
1164.3468DESURMONT Dominique44FRA1:54:201:54:575:27 11.01619vhSARS ET ROSIERES
1165.3566WESTELYNCK Frederic45FRA1:54:081:54:575:27 11.01620vhMONS EN BAROEUL
1166.4393VANHEE Danny50BEL1:54:471:54:575:27 11.01621vhSPIERE
1167.3668WESTRELIW Franck42FRA1:54:041:55:005:28 11.01622vhNIEPPE
1168.3444FREGNIER Marie Cecile40FRA1:53:441:55:015:28 11.0163vfLILLE
1169.3423FDESBOIS Beatrice40FRA1:53:451:55:015:28 11.0164vfVILLENEUVE D ASCQ
1170.3475FBIANCHI Geraldine35FRA1:54:341:55:025:28 11.0130sefARMENTIERES
1171.4441LAGROUAS Jerome37FRA1:54:031:55:025:28 11.00412sehMARCQ EN BAROEUL
1172.3246FMOUSSION Sylvie50FRASNCF1:54:401:55:025:28 11.0065vfLILLE (CP 1)
1173.3239FDEBRUYNE Kathy44BEL1:53:571:55:035:28 11.0066vfKOKSIJDE
1174.3238FDEROO Kathy44BEL1:53:561:55:035:28 11.0067vfOOSTDUINKERKE
1175.3537DEPRET Didier43FRA1:55:031:55:075:28 11.00623vhTOURCOING
1176.4489FFIEMS Mieke42BEL1:55:051:55:095:28 10.9968vfBRUGGE
1177.3370PICKAVET Geert40BELCERATEC1:54:121:55:095:28 10.99624vhVOORMEZELE
1178.3545LAVOGEZ Pierre25BEL1:54:581:55:095:28 10.99413sehCLETY
1179.3505MANIER Nicolas32FRA1:54:221:55:095:28 10.99414sehLILLE
1180.5080PEREIRA Frederic41FRA1:54:391:55:115:28 10.99625vhCHERENG
1181.3908GELDOF Frans50BELVELOURS1:54:561:55:125:28 10.99626vhWOUMEN
1182.3471CHAPELET Michel51FRA1:54:501:55:135:28 10.99627vhSERQUES
1183.3047FBOUCQ Ginette54BELJOG NAT1:55:001:55:145:28 10.9969vfPLOEGSTEERT
1184.3181DENIS Norbert61FRA1:54:371:55:175:28 10.98628vhESQUERDES
1185.3182DEVRED Olivier41FRA1:55:121:55:265:29 10.97629vhMONS EN BAROEUL
1186.3743HAEUW Patrice53FRA1:54:001:55:275:29 10.97630vhLAMBERSART
1187.3523VANCOLEN Stephane39FRA1:53:561:55:275:29 10.97415sehRONCQ
1188.4564DEMARETS Pascal44BEL1:55:221:55:275:29 10.96631vhGISTEL
1189.4555LEROY Loic24FRA1:54:371:55:285:29 10.96416sehCROIX
1190.3814CASSEZ Jean Yves43FRA1:54:111:55:305:29 10.96632vhLILLE HELLENNES
1191.3155BUCHET Bertrand38FRA1:55:081:55:315:29 10.96417sehFACHES THUSMENIL
1192.4001GEORGE Pieter28BEL1:54:341:55:315:29 10.96418sehSINT ANDRIES
1193.3293SUBREVILLE Laurent42FRA1:54:311:55:315:29 10.96633vhBLERANCOURT
1194.3758FMOREL Karine37FRACEUX DU LAC1:54:461:55:375:29 10.9531sefVILLENEUVE D ASCQ
1195.4874FHUVAERE Ann50BEL1:54:531:55:395:29 10.9570vfHOOGLEDE
1196.3068HIMBRECHT Gunther43BEL1:54:251:55:425:30 10.94634vh
1197.3729BRIL Philippe44FRA1:55:241:55:455:30 10.94635vhHENIN BEAUMONT
1198.3547FSENSE Benedicte40FRA1:55:241:55:505:30 10.9371vfBAILLEUL
1199.3374WERQUIN Laurent39BELCERATEC1:54:591:55:525:30 10.93419sehLE BIZET
1200.4588FEVRIER Bernard63FRA1:54:341:55:545:30 10.92636vhLAPUGNOY
DNF: did not finish; DSQ: disqualified; Speed in km/h
06/02/2023 - 09:56 - 1689 Entries
ChronoRace - Electronic Timing SPRL
http://www.chronorace.be

Page 24 / 34  
La Course du Souvenir
Jogging Ploegsteert, 11/11/2010, BEL
21.1km - Result
21.097km 
Category
PosNrNameAgeNATTeamRealTimeTkmMoy.PlaceNameCity
1201.4625LELONG Christophe36FRA1:55:041:55:545:30 10.92420sehFOUQUIERES LES BETHUNE
1202.3236HOUBART Franck38FRA1:54:341:55:545:30 10.92421sehGONNEHEM
1203.3634VARRASSE Sebastien32FRA1:54:541:55:555:30 10.92422sehST JANS CAPPEL
1204.4729PILLON Michel56FRA1:54:421:55:575:30 10.92637vhRAISMES
1205.4665FOURE Gilles41FRA1:54:421:55:575:30 10.92638vhANZIN
1206.3904THOOR Jean-Louis57FRA1:54:311:55:585:30 10.92639vhBAILLEUL
1207.3700FVANWALSCAPPEL Camille28FRAAC CHAPELLOIS1:54:561:56:055:31 10.9032sefCHAPELLE D ARMENTIERES
1208.3644LEROY Marcel57FRA1:55:211:56:055:31 10.90640vhTILQUES
1209.3699HAZE Vincent44FRAAC CHAPELLOIS1:54:581:56:065:31 10.90641vhCHAPELLE D ARMENTIERES
1210.4598FDESMET Els43BEL1:55:451:56:095:31 10.9072vfDEERLIJK
1211.3310FVANBETSBRUGGE Lore41BEL1:55:331:56:095:31 10.9073vfINGELMUNSTER
1212.3311BOUDRY Bruno37BEL1:55:311:56:105:31 10.90423sehNOKERE
1213.3065VERBANCK Denis46FRA1:55:351:56:135:31 10.89642vhCOUDEKERQUE BRANCHE
1214.3443POORTEMAN Gilles49FRA1:55:201:56:145:31 10.89643vhTOURCOING
1215.3497DEMILT David41FRA1:55:201:56:155:31 10.89644vhWAHAGNIES
1216.4444FDEBEUF Joke41BEL1:55:261:56:165:31 10.8974vfWERVIK
1217.4774SARTRYS Philippe45BEL1:55:271:56:165:31 10.89645vhWERVIK
1218.4552FLEBLANC Sandrine42BEL1:55:121:56:165:31 10.8975vf
1219.3504DELEPAUT Antoine46FRAAHVL1:56:201:56:225:31 10.88646vhHALLUIN
1220.3823MOREL Alain58FRA1:55:191:56:235:31 10.88647vhLILLE (CP 1)
1221.4017DELATTRE Nicolas28FRA1:54:591:56:265:32 10.87424sehMARCQ EN BAROEUL
1222.3531FCAMBLIN Bernadette59FRA1:55:571:56:305:32 10.8776vfBILLY BERCLAU
1223.4327BOUCLY Aurelien29FRA1:55:591:56:315:32 10.87425sehNIEPPE
1224.3203VRIDAUD Benjamin33FRA1:55:241:56:325:32 10.86426sehCORBIE
1225.3508MARTIN Jean Pierre56FRA1:56:111:56:345:32 10.86648vhGONDECOURT
1226.4867MAGNIER Christophe52BEL1:54:151:56:435:32 10.85649vhNECHIN
1227.4905DEFONTAINE Thomas26FRA1:55:231:56:435:32 10.85427sehLILLERS
1228.3183DEWILDE Freddy37FRA1:56:301:56:455:33 10.84428sehPERENCHIES
1229.3084BOUCLY Stephane35FRA1:56:141:56:465:33 10.84429sehVILLENEUVE D ASCQ
1230.3072FSIEBIERSKI Sylvie44FRA1:56:101:56:475:33 10.8477vfCAPPELLE LA GRANDE
1231.3177PECKEU Bruno49FRABN JOGGING1:56:091:56:475:33 10.84650vhCOUDEKERQUE BRANCHE
1232.3831VANCAYZEELE Christian53FRA1:54:321:56:485:33 10.84651vhNIEPPE
1233.3205VRIDAUD Daniel62FRA1:55:411:56:505:33 10.84652vhDUNKERQUE (CP 2)
1234.3713CLAEYS Jean Marie52BELDAPALO1:56:321:56:505:33 10.83653vhGELUWE
1235.3712CLAES Kristof31BEL1:56:331:56:515:33 10.83430sehWERVIK
1236.4460VANDEWIELE Thijs32BEL1:56:001:56:545:33 10.83431sehGELUWE
1237.4535FHEUSEQUIN Christel39BEL1:56:321:57:015:33 10.8233sef
1238.4534JONCKHEERE Geert53BEL1:56:331:57:025:33 10.82654vhOOSTENDE
1239.5007FCARON Catherine55FRA1:56:591:57:025:33 10.8278vfSOMAIN
1240.5006CARON Erik56FRA1:56:441:57:025:33 10.82655vhSOMAIN
1241.3103POUILLE Christophe38FRA1:55:591:57:045:33 10.81432sehBAUVIN
1242.4748KINDT Augustijn27BEL1:55:371:57:055:33 10.81433sehHOLLOBEKE
1243.3349DUBRULLE Frederic40FRA1:55:071:57:065:34 10.81656vhLENS
1244.3878GUILBERT Eric42FRA1:55:431:57:075:34 10.81657vhLA COUTURE
1245.4686LEBLANC Serge45FRA1:56:591:57:085:34 10.81658vhAMES
1246.3328COLLET Philippe49FRAVISTEON1:56:061:57:115:34 10.80659vhWAVRIN
1247.4794FLECLERCQ Femme Dunkerque47FRA1:56:391:57:125:34 10.8079vfDUNKERQUE (CP 2)
1248.3169DERVAUX Thibault52FRA1:55:551:57:125:34 10.80660vhFLINES LES MORTAGNE
1249.4664MAQUERE Cedric34FRA1:56:351:57:125:34 10.80434sehTETEGHEM
1250.3935VANDAELE Stefaan46BEL1:56:131:57:125:34 10.80661vhROESELARE
DNF: did not finish; DSQ: disqualified; Speed in km/h
06/02/2023 - 09:56 - 1689 Entries
ChronoRace - Electronic Timing SPRL
http://www.chronorace.be

Page 25 / 34  
La Course du Souvenir
Jogging Ploegsteert, 11/11/2010, BEL
21.1km - Result
21.097km 
Category
PosNrNameAgeNATTeamRealTimeTkmMoy.PlaceNameCity
1251.3997ROSSEEL Jean Claude57FRA1:57:131:57:145:34 10.80662vhCHAPELLE D ARMENTIERES
1252.3431BAYART Thierry47FRA1:56:401:57:155:34 10.80663vhCAPPELLE BROUCK
1253.5065FDEVOS An45BEL1:55:051:57:165:34 10.8080vfZILLEBEKE
1254.4775VERCAMBRE Marc60BELRUNNING TEAM LA1:55:561:57:185:34 10.79664vhREKKEM
1255.3458BLANQUART Daniel44FRA1:56:261:57:195:34 10.79665vhLILLE (CP 1)
1256.3499HENIN Thierry39FRA1:56:491:57:215:34 10.79435sehALLENNES LES MARAIS
1257.4939VANHOVE Dirk46BEL1:56:281:57:265:34 10.78666vhBLANKENBERGE
1258.3407LEMANT Bart44BELBEISBROEKLOPERS1:56:351:57:285:35 10.78667vhSINT ANDRIES
1259.4545BUYSE Dirk57BEL1:56:061:57:305:35 10.77668vhIZEGEM
1260.5062VIGNIER Clement25FRA1:56:521:57:315:35 10.77436sehLILLE
1261.3535HERIN Bernard51FRA1:57:111:57:365:35 10.76669vhCAMBRAI
1262.3552FVANDENABEELE Sabine39BEL1:56:471:57:375:35 10.7634sefGELUWE
1263.4941VANDROMME Bert54BEL1:56:381:57:385:35 10.76670vhPOPERINGE
1264.3821OBJOIS Bernard60FRA1:56:461:57:395:35 10.76671vhMONS EN BAROEUL
1265.3305FBEHAGUE Chantal51BELPHILIPPIDES TEM1:57:321:57:435:35 10.7581vf
1265.4994DE GRAEVE Manuêl25BEL1:57:151:57:435:35 10.75437sehMOORSELE
1267.4466DUMON Gino34BELAC OUDENBURG1:56:311:57:445:35 10.75438sehOUDENBURG
1268.5093FVERPLANCKE Liesbeth29BEL1:57:071:57:445:35 10.7535sefOUDENBURG
1269.3327DE MUYNCK Stephane39FRA1:57:031:57:475:35 10.75439sehDOURGES
1270.3852VANDEPUTTE Francois29FRA1:57:431:57:475:35 10.75440sehNEUVILLE EN FERRAIN
1271.4713FHOUSPIE Anne37FRA1:57:261:57:535:36 10.7436sefVIRE
1272.4969FRYBINSKI Celine39FRA1:56:111:57:535:36 10.7437sefWATTRELOS
1273.4970RYBINSKI Regis48BEL1:57:391:57:535:36 10.74672vh
1274.4637FTAVERNIER Ann46BEL1:56:331:57:555:36 10.7482vfARDOOIE
1275.4889ALSBERGHE Stephane39FRA1:55:381:57:575:36 10.73441sehLAVANTIE
1276.4570ERGO Philippe41BEL1:56:451:57:595:36 10.73673vhHERINNES
1277.3151FVANDEWALLE Cindy36BEL1:57:091:57:595:36 10.7338sefRENINGELST
1278.4571FDUTHOIT Benedicte40BEL1:56:461:58:005:36 10.7383vf
1279.3666VERBEKE Yannick47FRA1:57:111:58:015:36 10.73674vhLOOS
1280.3665SAGOT Yannick46FRATHALES1:57:091:58:025:36 10.73675vhTOURCOING
1281.3404DEPECKER Jurn32BELBEISBROEKLOPERS1:57:071:58:065:36 10.72442sehVELDEGEM
1282.3410FSCHOUTTEERE Cynthia29BELBEISBROEKLOPERS1:57:081:58:065:36 10.7239sefVELDEGEM
1283.4492FVANSLAMBROUCK Greet39BEL1:56:471:58:085:36 10.7240sefBRUXELLES
1284.4486VANSLAMBROUCK Herman72BEL1:57:501:58:095:36 10.71676vhIZEGEM
1285.4602FCARRYN Marijke53BEL1:56:431:58:095:36 10.7184vfMEISE
1286.3368LEMOINE Stephane41BELCERATEC1:57:181:58:105:37 10.71677vhWARNETON
1287.3845HELIOT Laurent44FRACC ARMENTIERES1:57:521:58:125:37 10.71678vhTEMPLEUVE
1288.3787FCARDON Angelique42BELJOGGING CLUB WA1:58:041:58:135:37 10.7185vfBAS WARNETON
1288.3154CHARLET Damien35FRA1:57:501:58:135:37 10.71443sehLILLE
1290.3079DUTELLE Daniel63FRA1:57:551:58:165:37 10.70679vhCAPINGHEM
1291.3717FRIGAUT Francoise59FRA1:57:041:58:185:37 10.7086vfPERENCHIES
1292.3772MICHAUX Alexandre36FRA1:57:121:58:215:37 10.70444sehDOUAI
1293.3771ZABROWSKI Francois34FRA1:57:121:58:215:37 10.70445sehSOMAIN
1294.4666FCHAUSSOIS Lucie28FRA1:56:351:58:215:37 10.7041sefLA MADELEINE
1295.5018DEPUYDT Maxime26FRA1:58:011:58:225:37 10.69446sehMARCQ EN BAROEUL
1296.5039FPATERNOSTRE Veronique43FRA1:57:341:58:235:37 10.6987vfLIMAL
1297.3576FCASSIN Marie Line48FRA1:57:591:58:355:38 10.6888vfLEFFRINCKOUCKE
1298.3710SERRA Laurent33FRA1:56:581:58:375:38 10.67447sehLEERS
1299.3309VANOOTEGHEM Herve44FRAPHILIPPIDES TEM1:58:281:58:375:38 10.67680vhTEMPLEUVE
1300.3606DUQUENHEM Francis58FRA1:58:081:58:385:38 10.67681vhNIEPPE
DNF: did not finish; DSQ: disqualified; Speed in km/h
06/02/2023 - 09:56 - 1689 Entries
ChronoRace - Electronic Timing SPRL
http://www.chronorace.be

Page 26 / 34  
La Course du Souvenir
Jogging Ploegsteert, 11/11/2010, BEL
21.1km - Result
21.097km 
Category
PosNrNameAgeNATTeamRealTimeTkmMoy.PlaceNameCity
1301.3792FMEERSSEMAN Karolien46FRA1:58:191:58:415:38 10.6789vfBESELARE
1302.3061FBLARY Celine34FRA1:58:411:58:415:38 10.6742sefHAUBOURDIN
1303.3615CREVITS Jean-Luc48FRA1:58:161:58:535:39 10.65682vhHOUPLINES
1304.4678SMITH Ted323BEL1:58:201:58:535:39 10.65448seh
1305.4679ROBBIE Gill23BEL1:58:531:58:535:39 10.65449seh
1306.4442FMEURILLON Christine35FRA1:57:411:58:555:39 10.6543sefHAZEBROUCK
1307.3133FVANDAMME Sabine44BELTC LOGAN1:58:121:58:555:39 10.6590vfOOSTKAMP
1308.3228LIEBAERT Denis53FRA1:57:461:58:565:39 10.64683vhLILLE
1309.3524DEVICK Jean Pierre64FRA1:58:421:58:565:39 10.64684vhWALLON CAPPEL
1310.3491FBAUDE Annie50FRA1:58:431:58:565:39 10.6491vfCASSEL
1311.3394SOENEN Alex42BEL1:58:481:58:595:39 10.64685vhPOPERINGE
1312.4322FBOUTTELGIER Caroline51BEL1:57:391:59:015:39 10.6492vfDIKSMUIDE
1313.3571BRONSART Gerard64FRAASUD1:58:091:59:025:39 10.64686vhLILLE
1314.3548LAMBECQ Bertrand37FRA1:58:361:59:035:39 10.63450sehBAILLEUL
1315.4549VANDEPUTTE Pierre46BELRUNNING TEAM LA1:57:431:59:035:39 10.63687vhMARKE
1316.4916SPILLEBEEN Marc51BEL1:57:421:59:035:39 10.63688vhLAUWE
1317.3397FVAN DOORNE Linda51BELBEISBROEKLOPERS1:56:581:59:045:39 10.6393vfST ANDRIES
1318.3751LEROY Bertrand44FRA1:58:061:59:045:39 10.63689vhLAMBERSART
1319.3755FTHOMAS Brigitte54FRACHTI TRIATLILLE1:58:561:59:075:39 10.6394vfST ANDRE LEZ LILLE
1320.4621WILLEMOTTE David39FRA1:58:431:59:105:39 10.62451sehENGLOS
1321.3220BREBANT Laurent39BELJA FRETIN1:57:521:59:125:39 10.62452seh
1322.3176VERMEULEN Jean Christophe50FRABN JOGGING1:57:551:59:125:39 10.62690vhTOURCOING
1323.4038KERKHOVE Gauthier29BEL1:59:041:59:135:40 10.62453seh
1324.4894FDECLERCQ Romaine45FRA1:58:391:59:135:40 10.6295vfMARCQ EN BAROEUL
1325.3348BATAILLE Bernard50FRA1:58:161:59:145:40 10.62691vhMOUVAUX
1326.3622TABARY Baptiste27FRA1:58:081:59:165:40 10.61454sehLOOS
1327.3454BOUCKHUIT Emmanuel38FRA1:58:041:59:195:40 10.61455sehLYS LES LANNOY
1328.3219FDUVET BECQUET Emilie30FRAJA FRETIN1:58:001:59:195:40 10.6144sefSALOME
1329.4016FDECOSTER Flore25FRA1:58:261:59:215:40 10.6145sefLILLE (CP 2)
1330.4861VERSCHOORE Kurt37BEL1:58:121:59:245:40 10.60456sehGULLEGEM
1331.3526WORME Regis53FRA1:58:541:59:285:40 10.60692vhLYNDE
1332.4416SANTY Dominique53BEL1:58:061:59:285:40 10.60693vhDOTTIGNIES
1333.3073FHAU Fabienne46FRA1:58:531:59:305:40 10.5996vfSAINT POL SUR MER
1334.3909PERRY Dominique58FRAVELOURS1:58:391:59:305:40 10.59694vhLILLE (CP 2)
1335.5001FHUBRECHT Annick35BEL1:58:321:59:315:40 10.5946sefBLANKENBERGE
1336.4819FWILSSENS Nele39BEL1:58:321:59:315:40 10.5947sefBLANKENBERGE
1337.4824SEGERS Patrick38BEL1:58:331:59:325:40 10.59457sehBLANKENBERGE
1338.3810FACON Ludovic37FRA1:57:391:59:335:40 10.59458sehARMENTIERES
1339.4805LUGEZ Simon25FRA1:58:421:59:345:41 10.59459sehFACHES THUSMENIL
1340.3861HAVET Gatien32FRA1:58:411:59:355:41 10.59460sehLILLE (CP 2)
1341.5022DESTOMBES Francois53FRA1:58:261:59:355:41 10.59695vhLILLE (CP 1)
1342.5078FMULLEMAN Chantal52BEL1:59:061:59:355:41 10.5997vfIEPER
1343.4323LANNOYE Hans45BEL1:58:141:59:365:41 10.58696vh
1344.5073LEPRETRE Laurent32FRA1:58:301:59:385:41 10.58461sehILLIES
1345.3388CNOCQUART Ludovic31BEL1:59:061:59:405:41 10.58462sehCELLES
1346.3227DAUGY Nicolas41FRA1:58:501:59:435:41 10.57697vhLINSELLES
1347.3282VERMERSCH Daniel55FRA1:58:291:59:445:41 10.57698vhSERQUES
1348.3172FDUBOIS Celia23BEL1:58:201:59:455:41 10.5748sef
1349.4581OPSOMER Jan43BEL1:58:231:59:465:41 10.57699vhIZEGEM
1350.4645DEMEESTER Peter47BEL1:58:231:59:465:41 10.57700vhIZEGEM
DNF: did not finish; DSQ: disqualified; Speed in km/h
06/02/2023 - 09:56 - 1689 Entries
ChronoRace - Electronic Timing SPRL
http://www.chronorace.be

Page 27 / 34  
La Course du Souvenir
Jogging Ploegsteert, 11/11/2010, BEL
21.1km - Result
21.097km 
Category
PosNrNameAgeNATTeamRealTimeTkmMoy.PlaceNameCity
1351.4507FSOENEN Gudrun54BEL1:58:241:59:465:41 10.5798vfIZEGEM
1352.4582FDESTOOP Dominique46BEL1:58:241:59:465:41 10.5799vfIZEGEM
1353.3171DUBOIS Jean Marie52BEL1:58:221:59:475:41 10.57701vhRUMILLIES
1354.3269MOULIN Jean Pierre52BEL1:58:221:59:475:41 10.57702vhTOURNAI
1355.3519DESAILLY Jean Luc48FRA1:59:391:59:485:41 10.57703vhWAVRIN
1356.5027FGORTON Amy24BEL1:59:091:59:495:41 10.5749sefMONS
1357.3628LANGLOIS Damien35FRA1:58:532:00:015:42 10.55463sehCAPINGHEM
1358.3624FOURNEAU Thierry46FRA1:58:542:00:015:42 10.55704vhFACHES THUMESNIL
1359.3625COMTE Gregory27FRA1:58:532:00:025:42 10.55464sehWASQUEHAL
1360.4475HERLIN Christophe53FRA1:59:452:00:045:42 10.54705vhLOMME
1361.4551FHUMEZ Nathalie40FRA1:59:082:00:125:42 10.53100vfBAILLEUL SUR BERTHOULT
1362.3281FCARRE Sarah35FRA1:59:022:00:135:42 10.5350sefSTEENWERCK
1363.4060FMAZIERES Blondine43FRA1:59:022:00:135:42 10.53101vfSTEENWERCK
1364.3898FRAMERY Caroline34FRALESAFFRE1:59:212:00:145:42 10.5351sefQUESNOY SUR DEULE
1365.4725FLIAGRE Anne Catherine48FRA1:59:432:00:145:42 10.53102vfWICRES
1366.3441DELOISON Stephane44FRA1:59:242:00:145:42 10.53706vhBIACHE ST VAAST
1367.4407FACQUEUR Bernard32FRA1:59:182:00:175:43 10.52465sehFRELINGHIEN
1368.4890WOODS Richard45FRA1:59:492:00:295:43 10.51707vhLUISANT
1369.3598CADBY Keith67FRA1:59:502:00:305:43 10.51708vhWERVICQ SUD
1370.3620ALLARD Jean Claude62FRA1:59:252:00:305:43 10.51709vhMARQUETTE LES LILLE
1371.4770FFOGED Stine41BEL1:59:122:00:315:43 10.50103vfGENT
1372.3672HASBROUCQ Patrick46FRA1:59:282:00:365:43 10.50710vhCOMINES
1373.3592FDUMORTIER Annette44FRA2:00:282:00:425:44 10.49104vfBONDUES
1374.3851DA SILVA Eric44BEL2:00:282:00:425:44 10.49711vhPLOEGSTEERT
1375.4614FWAERENBURGH Christine57BEL1:59:382:00:455:44 10.48105vfBRUGGE
1376.3132FDEDECKERE Dominique43BELTC LOGAN2:00:042:00:465:44 10.48106vfASSEBROEK
1377.3826FLESNES Francoise61FRA2:00:012:00:535:44 10.47107vfDUNKERQUE
1378.4030FDOURLENS Veronique46FRA2:00:262:00:585:45 10.46108vfFRELINGHIEN
1379.3798FDELFORCHE Alien25FRA2:00:142:01:005:45 10.4652sefANTWERPEN
1380.3797FDEFORCHE Sara32FRA2:00:142:01:005:45 10.4653sefANTWERPEN
1381.4390ROUSSEAU Marcel51FRA1:59:032:01:035:45 10.46712vhCARVIN
1382.4326FSONTA Marion26FRA1:59:512:01:035:45 10.4654sefCARVIN
1383.3390DEBAILLEUL Hugo38BEL2:00:372:01:045:45 10.46466sehWARNETON
1384.4389HAERYNCK Kristof28BEL2:00:382:01:185:45 10.44467sehHOOGLEDE
1385.3317ANTOINE Pierre49FRABANQUE ACCORD2:00:412:01:255:46 10.43713vhCOBRIEUX
1386.3670QUIVRON Jean Paul66FRAA.H.V.L2:01:192:01:325:46 10.42714vhHALLUIN
1387.3969CNOCQUART Frederic35FRABAC2:01:002:01:335:46 10.41468sehCHAUMONT-GISTOUX
1388.3156SAUTOT Olivier48FRA2:00:132:01:345:46 10.41715vhZUYDCOOTE
1389.3768CAILLIAUX Fabrice35FRA2:00:122:01:395:46 10.41469sehLILLE
1390.3500GOKELAERE Albert52FRA2:00:372:01:405:47 10.40716vhSAINS EN GOHELLE
1391.3812DECOENE Cyril20FRA2:01:042:01:415:47 10.4029eshEMMERIN
1392.3210CACHERAT Thierry39FRAJA FRETIN2:00:532:01:415:47 10.40470sehCROIX
1393.3813DECOENE Sylvain44FRA2:01:042:01:425:47 10.40717vhEMMERIN
1394.3595GADENNE Constant45FRA1:59:582:01:445:47 10.40718vhMARCQ EN BAROEUL
1395.5048FBACHELET Sandrine39FRA2:00:452:01:475:47 10.4055sefAIRE SUR LA LYS
1396.3090VERMEULEN Marc42FRA2:01:492:01:495:47 10.39719vhSAINT JANS CAPPEL
1397.4313POAS Jerome38FRA2:00:422:01:525:47 10.39471sehAIX NOULETTE
1398.4630LECLERCQ Olivier52BEL2:00:592:01:555:47 10.38720vh
1399.3192LAMARRE Laurent38FRA2:01:132:02:005:47 10.38472sehMERRIS
1400.4510FLEMAHIEU Sonia52BEL2:01:032:02:065:48 10.37109vfLEFFRINGE
DNF: did not finish; DSQ: disqualified; Speed in km/h
06/02/2023 - 09:56 - 1689 Entries
ChronoRace - Electronic Timing SPRL
http://www.chronorace.be

Page 28 / 34  
La Course du Souvenir
Jogging Ploegsteert, 11/11/2010, BEL
21.1km - Result
21.097km 
Category
PosNrNameAgeNATTeamRealTimeTkmMoy.PlaceNameCity
1401.5089FWELLEKENS Caroline48BEL2:00:512:02:065:48 10.37110vfKORTRIJK
1402.4795FLORES Eric50FRA2:01:562:02:065:48 10.37721vhTEMPLEUVE
1403.4578FVANHONACKER Hilde53BEL2:01:052:02:085:48 10.37111vfLEFFINGE
1404.5096FVERHELST Liesbeth24BEL2:00:412:02:095:48 10.3656sefMENEN
1405.3696FCATOIRE Corinne50FRAAC CHAPELLOIS2:01:022:02:115:48 10.36112vfHOUPLINES
1406.5041THOMAS Marc54FRA2:01:222:02:125:48 10.36722vhBETHUNE
1407.3784FGELDHOF Marijke56BEL2:00:182:02:145:48 10.36113vfIEPER
1408.3106DERDA Patrick56FRA2:01:202:02:155:48 10.35723vhCOBRIEUX
1409.4956DUHAMEL Jeremie33FRA2:01:312:02:155:48 10.35473sehHEM
1410.4949FLEONE Caroline40FRA2:01:482:02:155:48 10.35114vfDUNKERQUE (CP 2)
1411.3674POLLET Nicolas35FRA2:01:452:02:185:48 10.35474sehTATINGHEM
1412.3673TURCHI Piero35FRA2:01:452:02:185:48 10.35475sehLYS LES LANNOY
1413.4755FEYS Hans51BEL2:01:142:02:245:49 10.34724vhIEPER
1414.4691GIRARD Cedric34FRA2:01:232:02:255:49 10.34476sehLA MADELEINE
1415.3605HENDRICX Herve47FRA2:01:592:02:305:49 10.33725vhHAUBOURDIN
1416.3339FHAMY Danielle44FRA2:01:282:02:345:49 10.33115vfOFFEKERQUE
1417.4620FLEROY Florence45BEL2:01:362:02:365:49 10.33116vfHOVES
1418.3945FSURGA Corinne48FRA2:02:272:02:375:49 10.32117vfGUARBECQUE
1419.4411THIEREN Pierre66BEL2:01:272:02:445:50 10.31726vhWAVRE
1420.4655FCLEMENT Julie19BEL2:01:202:02:485:50 10.312jufHOVES
1421.3062FLANCELOT Patricia61FRA2:02:502:02:505:50 10.31118vfBREUIL LE SEC
1422.3343FGIAGNORIO Anne Sophie41FRA2:02:042:02:555:50 10.30119vfPREMESQUES
1423.3724DEMANGE Bernard57FRA2:02:112:02:555:50 10.30727vhBERGUES
1424.4811FDELOBELLE Andree50FRA2:02:442:02:565:50 10.30120vfSAINT MANDE
1425.4519FVAMOUR Marie Sue46BEL2:01:312:03:005:50 10.29121vf
1426.5023DESTOMBES Victor19FRA2:01:512:03:005:50 10.297juhLILLE (CP 1)
1427.3588SLOWINSKI Frederic49FRAUS LEFFRINCKOUC2:02:262:03:005:50 10.29728vhDUNKERQUE
1428.3591FWYPYCH Isabelle49FRA2:02:182:03:015:50 10.29122vfWASQUEHAL
1429.4967RYBINSKI Philippe46FRA2:02:162:03:025:50 10.29729vhDEULEMONT
1430.4384FBOUCHEZ Laurence43FRA2:02:352:03:165:51 10.27123vfEPERLECQUES
1431.4388BOUCHEZ Emmanuel47FRA2:02:362:03:165:51 10.27730vhEPERLECQUES
1432.3336CATRY Patrick51BEL2:03:032:03:275:52 10.25731vhMOUSCRON
1433.3117POIVRE Baudouin58FRA2:03:242:03:295:52 10.25732vhTOURCOING
1434.3350FHUARD France Anne49FRA2:02:592:03:295:52 10.25124vfROUBAIX
1435.3289FDELEDICQ Christine51FRA2:03:182:03:305:52 10.25125vfRONCHIN
1436.3369MAELBRANCKE Kris46BELCERATEC2:02:382:03:335:52 10.25733vhWEVELGEM
1437.3357BERGHMAN Koen41BELCERATEC2:02:382:03:335:52 10.25734vhHOOGLEDE
1438.3358BOUCKAERT Steven29BELCERATEC2:02:372:03:345:52 10.25477sehGELUWE
1439.3109LANDOUZY Yves57FRA2:03:092:03:345:52 10.24735vhFRESNES SUR ESCAUT
1439.4055LESAGE Pascal30FRA2:03:082:03:345:52 10.24478sehMARQUETTE LEZ LILLE
1441.3864BERTHEAU Gaspar19FRA2:02:352:03:515:53 10.228juhLILLE (CP 2)
1442.3091LEGER Michel56FRA2:02:342:03:535:53 10.22736vhENNETIERES EN WEPPES
1443.3279MERVEILLE Pierre55FRA2:03:182:03:545:53 10.22737vhAUBERS
1444.4454CAILLIEZ Jean Charles48FRA2:03:192:03:545:53 10.22738vhAUBERS
1445.3697HOUILLIER Claude52FRAAC CHAPELLOIS2:02:452:03:555:53 10.22739vhBREBIERES
1446.4520DESNOECK Dirk45BEL2:03:512:03:565:53 10.21740vhSTADEN
1447.4036FDE CONINCK Helene33FRA2:02:182:03:585:53 10.2157sefARMENTIERES
1448.3608PAINBLANC Didier55BEL2:03:012:04:005:53 10.21741vhTHIMEON
1449.3607GOFFART Henri50FRA2:03:022:04:015:53 10.21742vhTHIMEON
1450.3494FLECOCK Els45BEL2:03:562:04:025:53 10.21126vfGISTEL
DNF: did not finish; DSQ: disqualified; Speed in km/h
06/02/2023 - 09:56 - 1689 Entries
ChronoRace - Electronic Timing SPRL
http://www.chronorace.be

Page 29 / 34  
La Course du Souvenir
Jogging Ploegsteert, 11/11/2010, BEL
21.1km - Result
21.097km 
Category
PosNrNameAgeNATTeamRealTimeTkmMoy.PlaceNameCity
1451.4990FSEYNHAEVE Roos46BEL2:03:222:04:045:53 10.20127vfROESELARE
1452.4366FVERLEYE Christine60BEL2:02:582:04:045:53 10.20128vfBRUGGE
1453.4459FDESMYTER Jeanique42BEL2:02:572:04:045:53 10.20129vfBRUGGE
1454.3961FPIETERS Marie Rose52BELUS MARQUETT2:03:342:04:065:53 10.20130vfCOMINES
1455.4642FVANLANCKER Marjan51BEL2:03:432:04:085:54 10.20131vfROESELARE
1456.3520FDESAILLY Chantal47FRA2:03:182:04:105:54 10.20132vfWAVRIN
1457.4601FVANDAMME Tineke49BEL2:03:162:04:125:54 10.19133vfBLANKENBERGE
1458.3124KIEKENS Jan35BEL2:03:492:04:125:54 10.19479sehBRUGES
1459.3125BARREMAECKER Fred59BEL2:03:492:04:135:54 10.19743vhBRUGES
1460.4653FPYPE Marianne42BEL2:02:592:04:175:54 10.19134vfMOORSLEDE
1461.4752FBRAET Ann40BEL2:03:012:04:195:54 10.18135vfBESELARE
1462.3982WATTEL Andy46BEL2:03:302:04:215:54 10.18744vh
1463.4881MUREGANCURO Alain46BEL2:03:422:04:225:54 10.18745vhMONS
1464.4504DEWULF Dirk46BEL2:03:422:04:225:54 10.18746vhROESELARE
1465.4681FWILLEKENS Liesbet49BEL2:03:432:04:225:54 10.18136vfROESELARE
1466.4399FEGGERMONT Agnes49BEL2:03:432:04:225:54 10.18137vfROESELARE
1467.4502FCALLEWAERT Ingrid47BEL2:03:432:04:235:54 10.18138vfROESELARE
1468.3865PHILIPPE Damien32FRA2:03:222:04:255:54 10.17480sehMONS EN BAROEUL
1469.3242FCATTEEUW Monique52BEL2:03:242:04:315:55 10.17139vfDE PANNE
1470.3272MARLEIN Lorenzo40BEL2:04:172:04:365:55 10.16747vhBREDENE
1471.4566FALLUIN Marie Noelle45FRA2:04:032:04:385:55 10.16140vfILLIES
1472.3274VAN WAEYENBERGE Robert61BEL2:03:332:04:455:55 10.15748vhBREDENE
1473.3984AUROUSSEAU Bernard54FRA2:03:262:04:475:55 10.14749vhMOUVAUX
1474.4832BUYSE Piet54BEL2:04:082:04:525:56 10.14750vhKOKSIJDE
1475.4717VERVAEKE Bastien31FRA2:03:302:04:545:56 10.14481sehQUESNOY SUR DEULE
1476.5038PACHON Benjamin33FRA2:03:192:04:555:56 10.13482sehBOURBOURG
1477.4304CHARLIER Jacques59FRA2:03:352:04:565:56 10.13751vhVILLENEUVE D'ASCQ
1478.3226DOUBLIEZ Patrice50FRA2:03:492:04:595:56 10.13752vhLA MADELEINE
1479.4936DE WULF Stijn32FRA2:03:402:05:005:56 10.13483sehHUISE
1480.3818PEGASE Arnaud32FRA2:04:422:05:015:56 10.13484sehLA CHAPPELLE D'ARMENTIERES
1481.3019PAUWELS Yves52BEL2:04:192:05:045:56 10.12753vhLE BIZET
1482.3730DEQUIDT Marc60FRA2:04:442:05:055:56 10.12754vhBAILLEUL
1483.3165LOUDEAC Eric52FRA2:04:052:05:065:56 10.12755vhNOYON
1484.4929BAUCHART Philippe42FRA2:03:522:05:095:56 10.12756vhLEERS
1485.3422ABDESSEMED Rym10FRA2:03:252:05:155:57 10.116cahLILLE (CP 2)
1486.3916LUCHIER Patrick52BEL2:04:542:05:295:57 10.09757vhPLOEGSTEERT
1487.4893BLANQUART Bruno52FRA2:04:542:05:295:57 10.09758vhWATTIGNIES
1488.3507FPOTTIER Marianne33FRA2:05:052:05:305:57 10.0958sefLILLE
1489.3482FBOUCHE Patricia42FRALA MONDIALE2:03:472:05:375:58 10.08141vfWASQUEHAL
1490.3302FSTEEN Micheline43BEL2:04:272:05:385:58 10.08142vfBREDENE
1491.3277WYBOUW Erik50BEL2:04:272:05:385:58 10.08759vhBREDENE
1492.3994FLIEFOOGHE Helene44FRACOURIR AU MONT 2:04:432:05:435:58 10.07143vfMERRIS
1493.3993FRIETSCH Nadine49FRA2:04:432:05:435:58 10.07144vfSANTES
1494.4548DESTABELLE Michel47FRA2:04:542:05:485:58 10.06760vhTOURCOING
1495.4703COYEZ Philippe42FRA2:05:182:05:505:58 10.06761vhHAZEBROUCK
1496.3718FDEJONCHEERE Hanne34BEL2:05:282:05:525:58 10.0659sefMOORSELE
1497.4387FLERNOUT Anneke42BEL2:05:112:05:555:59 10.05145vfHOOGLEDE
1498.3661LAMBLIN Xavier39FRA2:04:432:05:565:59 10.05485sehBONDUES
1499.3637CORNETTE Marnix10BEL2:05:372:06:015:59 10.057cahNAZARETH
1500.4796FDHALLUIN Chantal62FRA2:06:002:06:125:59 10.03146vfLOUVIL
DNF: did not finish; DSQ: disqualified; Speed in km/h
06/02/2023 - 09:56 - 1689 Entries
ChronoRace - Electronic Timing SPRL
http://www.chronorace.be

Page 30 / 34  
La Course du Souvenir
Jogging Ploegsteert, 11/11/2010, BEL
21.1km - Result
21.097km 
Category
PosNrNameAgeNATTeamRealTimeTkmMoy.PlaceNameCity
1501.4844FGRYSPEERDT Katrien38BEL2:05:342:06:145:59 10.0360sefROESALARE
1502.3480FROSA Nadine45FRA2:06:082:06:166:00 10.03147vfWORMHOUT
1503.4465MEIRSMAN Patrick47BEL2:05:352:06:166:00 10.03762vhROESELARE
1504.3481ROSA Stephane44FRAJOG SRD2:04:312:06:176:00 10.02763vhWORMHOUT
1505.3742FPOIX Christine55FRA2:05:002:06:226:00 10.02148vfCOMINES
1506.3953FLELIEVRE Veronique43FRA2:05:582:06:296:00 10.01149vfBLESSY
1507.5047BACHELET Christophe44FRA2:05:252:06:296:00 10.01764vhAIRE SUR LA LYS
1508.3773FWILLEMSE Julie25FRA2:05:362:06:336:00 10.0061sefLILLE
1509.4523FPOTIE Anne Francoise43FRA2:05:392:06:346:00 10.00150vfVILLENEUVE D ASCQ
1510.3409FROSSEEL Ann46BELBEISBROEKLOPERS2:05:372:06:376:01 10.00151vfBRUGGE
1511.3790FVERBEKE Hanne36BEL2:06:152:06:376:01 10.0062sefBESELARE
1512.3791VANDER MEIREN Stefaan48BELW.Z.G.W2:05:092:06:386:01 10.00765vhBESELAERE
1513.4920FWYLIN Tanja40BEL2:06:062:06:386:01 10.00152vfVICHTE
1514.3833DELEPLANQUE Patrick57FRACPAM ARMENTIERE2:05:572:06:396:01 10.00766vhARMENTIERES
1515.4605GYKIERE Andreas48BEL2:05:592:06:416:01 9.99767vhBRUGGE
1516.3941MOREL Frederic38FRA2:05:212:06:416:01 9.99486sehAIRE SUR LA LYS
1517.4813BAUCHE Yves Antoine26FRA2:05:452:06:416:01 9.99487sehLILLE
1518.4050BUZENOT Cedric32FRA2:05:212:06:426:01 9.99488sehHAUBOURDIN
1519.4014FMONEIN Marylene35FRAWORMHOUT2:05:142:06:486:01 9.9863sefBAMBECQUE
1520.5030LHERMITTE Benoit25FRA2:06:002:06:506:01 9.98489sehERQUINGHEM LYS
1521.4647FVINDEVOGEL Laurence50BEL2:05:442:06:516:01 9.98153vfKOKSIJDE
1522.5068GAQUERE Laurent44FRA2:06:002:07:136:02 9.95768vhVENDIN LES BETHUNE
1523.4039PICOT DE MORAS Geraud30BEL2:07:012:07:146:02 9.95490sehWOLUWE-SAINT-PIERRE
1524.4355WERBROUCK Geert51BEL2:06:422:07:216:03 9.94769vhKOOLSKAMP
1525.3616FDUBREMETZ Sabine48FRA2:06:152:07:226:03 9.94154vfNEUVE CHAPELLE
1526.3617DUBREMETZ Didier49FRA2:06:152:07:226:03 9.94770vhNEUVE CHAPELLE
1527.4381LEGRAND Johan55BEL2:06:012:07:226:03 9.94771vhMOUSCRON
1528.3618VIDAUD Frederic44FRA2:06:172:07:246:03 9.94772vhACHICOURT
1529.3901DUPIRE Olivier30FRA2:06:172:07:286:03 9.93491sehLILLE
1530.4449WATRIN Rene46FRA2:06:302:07:386:03 9.92773vhDUNKERQUE (CP 2)
1531.4907WIESZT Stefan26FRA2:06:302:07:526:04 9.90492sehLA MADELEINE
1532.3039DEJONCKHEERE Godfried58BEL2:07:442:07:536:04 9.90774vhIEPER ZILLEBEKE
1533.3786FDECONINCK Regine45BELJOG WARNETON2:07:452:07:546:04 9.90155vfPLOEGSTEERT
1534.3288VERHELST Stephane55FRA2:06:452:07:546:04 9.90775vhGHYVELDE
1535.4420FDEWULF Ann44BEL2:07:412:08:006:05 9.89156vfMARKE
1536.4356MUYLLE Joost47BEL2:07:412:08:016:05 9.89776vhKORTRIJK
1537.4443LEJAEGERE Curd46BEL2:07:422:08:016:05 9.89777vhMARKE
1538.3331LOISEAU Francois60FRA2:07:282:08:156:05 9.87778vhVILLENEUVE D ASCQ
1539.3660FDESBONNET Anne-Sophie45FRA2:07:022:08:166:05 9.87157vfBONDUES
1540.3201FTHOMAS Claudie41FRA2:07:532:08:236:06 9.86158vfABLAIN SAINT NAZAIRE
1541.3202THOMAS Gilles43BEL2:07:532:08:236:06 9.86779vh
1542.4333FLEPRETRE Severine33FRA2:07:552:08:256:06 9.8664sefRADINGHEM EN WEPPES
1543.4334HAUDEGON Guillaume37BEL2:07:562:08:266:06 9.86493seh
1544.4961RICHE Gautier33FRA2:07:452:08:326:06 9.85494sehPANTIN
1545.4806PARSY Gilles49FRA2:07:582:08:436:07 9.83780vhERQUINGHEM SUR LYS
1546.4984FCOLLIE Catherine31BEL2:07:422:08:436:07 9.8365sefMONS
1547.4473MAGNIEZ Julien28BEL2:08:182:08:446:07 9.83495sehTAMWORTH ENGLAND
1548.4480FDELPORTE Celine25FRA2:08:162:08:446:07 9.8366sefVILLENEUVE D'ASCQ
1549.3485FBIENAIME Laurence46FRA2:07:102:08:466:07 9.83159vfHAZEBROUCK
1550.4728VANOOTEGHEM Patrick46BEL2:08:532:08:596:07 9.82781vhMOUSCRON
DNF: did not finish; DSQ: disqualified; Speed in km/h
06/02/2023 - 09:56 - 1689 Entries
ChronoRace - Electronic Timing SPRL
http://www.chronorace.be

Page 31 / 34  
La Course du Souvenir
Jogging Ploegsteert, 11/11/2010, BEL
21.1km - Result
21.097km 
Category
PosNrNameAgeNATTeamRealTimeTkmMoy.PlaceNameCity
1551.3452BECK Thierry36FRA2:08:582:09:036:07 9.81496sehBAILLEUL
1552.3890HOSTYN Kenneth27BEL2:08:452:09:266:09 9.78497sehROSELARE
1553.3326NOGA Jeremy18FRA2:07:182:09:416:09 9.769juhPROVIN
1554.4782FSCHELPE Ann45BEL2:08:242:09:466:10 9.76160vfIZEGEM
1555.3741FDOUBLET Bernadette51FRA2:08:232:09:466:10 9.76161vfCOMINES
1556.5032FMASUREL Margaux19FRA2:08:432:09:466:10 9.753jufMARCQ EN BAROEUL
1557.4002FVAN DE SOMPELE Leen28BEL2:09:062:10:046:10 9.7367sef
1558.4563FJACOB Jill29BEL2:09:062:10:046:10 9.7368sefSINT MICHIELS
1559.4026FLARGILLIERE Isabelle43FRA2:08:582:10:086:11 9.73162vfHOUPLINES
1560.3134WALLYN Piet27BELTC LOGAN2:08:522:10:086:11 9.73498sehHAACHT
1561.3347FWACOGNE Nathalie47FRA2:09:222:10:106:11 9.72163vfHERLIES
1562.3649FGRATTEPANCHE Stephanie41FRA2:08:592:10:106:11 9.72164vfHOUPLINES
1563.3648FPICARD Annick49FRA2:09:002:10:116:11 9.72165vfARMENTIERES
1564.3767RAZEMON Ludovic10FRA2:10:132:10:176:11 9.728cahCOMINES
1564.3765RAZERON Stephane48FRA2:10:142:10:176:11 9.72782vhLILLE (CP 1)
1566.4536ISEBAERT Emmanuel36BEL2:10:112:10:246:11 9.71499sehGENT
1567.4656FLAGAERT Rita56BEL2:09:282:10:276:11 9.70166vfTUBIZE
1568.3323MONPAYS Mickael35FRA2:10:002:10:426:12 9.69500sehHENIN BEAUMONT
1569.4461FCARLIER Trui45BEL2:09:232:10:446:12 9.68167vfIZEGEM
1570.3807FBREUNIG Caroline47FRA2:09:262:10:446:12 9.68168vfROUBAIX
1571.4429WITHOUCK Serge41BEL2:10:082:10:486:12 9.68783vhROESELARE
1572.3894CLAEYS Benoit60FRAVELOURS2:10:132:10:486:12 9.68784vhMETEREN
1573.3398DHONDT Eddy52BELBEISBROEKLOPERS2:09:522:10:516:13 9.67785vhBRUGGE
1574.4589FVANDEKERKHOVE Maaike42BEL2:10:332:11:126:14 9.65169vfROESALARE
1575.4711DESLIGNES Patrick53FRA2:11:042:11:136:14 9.65786vhCAPPELLE LA GRANDE
1576.4040RAKOTOMANANA Claude Eric41FRAFOULÉES SAINGHI2:10:262:11:166:14 9.64787vhCAPINGHEM
1577.3919FVERLYCK Anne60FRA2:11:212:11:306:14 9.63170vfLAMBERSART
1578.3645VANGHELUWE Didier44FRA2:11:182:11:356:15 9.62788vhARMENTIERES
1579.3280FBLOT Anne Flore39FRA2:10:472:11:396:15 9.6269sefTILLOY LEZ CAMBRAI
1580.3264FDROUARD Catherine52FRA2:11:322:11:516:15 9.60171vfLA MADELEINE
1581.3265DROUARD Bernard56BEL2:10:542:11:516:15 9.60789vh
1582.3341FJACQUIN Marie Christine44FRA2:11:232:11:556:16 9.60172vfMAZINGARBE
1583.3795BECQUART Francois38FRA2:10:572:12:156:17 9.57501sehVILLENEUVE D ASCQ
1584.3602GRAVELAINE Jacques50FRA2:11:192:12:236:17 9.56790vhARMENTIERES
1585.3067FBERTELOOT Ann43BEL2:11:102:12:296:17 9.56173vfROESELARE
1586.4438FDEDECKERE Myriam41BEL2:11:492:12:336:17 9.55174vfHOOGLEDE
1587.4432FLAMBERT Manja44BEL2:11:452:12:406:18 9.54175vf
1588.4431MUREZ Eddy44BEL2:11:442:12:406:18 9.54791vhCELLES
1589.3876FMARSY Charlotte45FRA2:11:062:13:186:20 9.50176vfLESTREM
1590.3877FHAEST Corinne43FRA2:12:402:13:196:20 9.50177vfESTAIRES
1591.3303FBARRAS Christine49FRAPHILIPPIDES TEM2:13:082:13:206:20 9.49178vfTEMPLEUVE
1592.3307FDELANNOY Marie Annick50FRAPHILIPPIDES TEM2:13:082:13:206:20 9.49179vfTEMPLEUVE
1593.3306FCASTEL Christelle45FRAPHILIPPIDES TEM2:13:162:13:266:20 9.49180vfTEMPLEUVE
1594.3271BAEKELAND Gerard67BEL2:12:472:13:346:20 9.48792vhKORTEMARK
1595.4799MOURETTE Pierrick24FRA2:12:462:13:376:20 9.47502sehROUBAIX
1596.3747LUTUN Christian62FRA2:12:352:13:396:21 9.47793vhQUESNOY SUR DEULE
1597.4747FVANHOUTTE Mieke51BEL2:13:042:13:456:21 9.46181vf
1598.3342FSABLAN Marie Christine55FRA2:11:372:13:596:22 9.45182vfBULLY LES MINES
1599.3986FEYS Bruno49FRA2:13:542:14:066:22 9.44794vhRONCHIN
1600.5064DESPRIET Bart22BEL2:13:302:14:476:24 9.3930eshKORTRIJK
DNF: did not finish; DSQ: disqualified; Speed in km/h
06/02/2023 - 09:56 - 1689 Entries
ChronoRace - Electronic Timing SPRL
http://www.chronorace.be

Page 32 / 34  
La Course du Souvenir
Jogging Ploegsteert, 11/11/2010, BEL
21.1km - Result
21.097km 
Category
PosNrNameAgeNATTeamRealTimeTkmMoy.PlaceNameCity
1601.4673FBOUNINE CABALE Sophie27FRA2:12:452:14:566:24 9.3870sefPARIS 07
1602.4903MARICOU Alain45BEL2:14:032:15:236:25 9.35795vhMOORSLEDE
1603.3585LEFEBVRE Laurent54FRA2:15:062:15:446:27 9.33796vhLEFFRINCKOUCKE
1604.3436FDESRUMAUX Marie Pierre49FRALA MONDIALE2:15:552:16:026:27 9.31183vfVILLENEUVE D ASCQ
1605.4517FHOURIEZ Florence41FRA2:15:092:16:046:27 9.30184vfVILLENEUVE D ASCQ
1606.4539FHUYS Inge40BEL2:15:102:16:046:27 9.30185vfDEINZE
1607.4553FMACAREZ Elisabeth38FRA2:15:282:16:046:27 9.3071sefMARQUILLIES
1608.4493BRUNEEL Luc57BEL2:15:102:16:046:27 9.30797vhINGELMUNSTER
1609.4056NR 4056 XXX2:14:572:16:156:28 9.292xxx